PAA2 KLAX-KJFK
Flight info
| Callsign | PAA2 |
|---|---|
| Flight time | N/A |
| Altitude | 21000 |
| Route | LAXX1 TRM J78 PKE J96 DRK INW/N0223F230 GUP J8 FTI J18 DRAWL/N0228F250 J18 GCK J96 PIA FWA DJB JHW Q476 WLKES PUCKY1 |
| Aircraft | B377/M-SDFY/C |
Departure
| Time | 2026-05-07 16:57 |
|---|---|
| Airport | Los Angeles International Airport (KLAX) |
Arrival
| Time | N/A |
|---|---|
| Airport | John F. Kennedy International Airport (KJFK) |
| Time | Latitude | Longitude | Altitude | Speed | Heading |
|---|---|---|---|---|---|
| 2026-05-07 16:30 | 33.94699 | -118.40849 | 135 ft | 0 kts | 133° |
| 2026-05-07 16:48 | 33.94699 | -118.40848 | 135 ft | 1 kts | 131° |
| 2026-05-07 16:48 | 33.94686 | -118.40843 | 135 ft | 3 kts | 188° |
| 2026-05-07 16:48 | 33.94676 | -118.40870 | 135 ft | 6 kts | 274° |
| 2026-05-07 16:48 | 33.94688 | -118.40914 | 135 ft | 5 kts | 323° |
| 2026-05-07 16:49 | 33.94706 | -118.40923 | 135 ft | 0 kts | 347° |
| 2026-05-07 16:51 | 33.94709 | -118.40924 | 135 ft | 3 kts | 347° |
| 2026-05-07 16:51 | 33.94769 | -118.40931 | 135 ft | 12 kts | 357° |
| 2026-05-07 16:51 | 33.94834 | -118.40889 | 135 ft | 11 kts | 73° |
| 2026-05-07 16:52 | 33.94844 | -118.40805 | 135 ft | 10 kts | 84° |
| 2026-05-07 16:52 | 33.94852 | -118.40727 | 135 ft | 9 kts | 81° |
| 2026-05-07 16:52 | 33.94860 | -118.40655 | 135 ft | 9 kts | 83° |
| 2026-05-07 16:52 | 33.94866 | -118.40584 | 135 ft | 9 kts | 83° |
| 2026-05-07 16:53 | 33.94874 | -118.40503 | 135 ft | 10 kts | 89° |
| 2026-05-07 16:53 | 33.94882 | -118.40412 | 135 ft | 12 kts | 84° |
| 2026-05-07 16:53 | 33.94894 | -118.40309 | 135 ft | 13 kts | 82° |
| 2026-05-07 16:53 | 33.94906 | -118.40208 | 135 ft | 7 kts | 67° |
| 2026-05-07 16:54 | 33.94918 | -118.40196 | 135 ft | 0 kts | 27° |
| 2026-05-07 16:54 | 33.94918 | -118.40195 | 135 ft | 0 kts | 27° |
| 2026-05-07 16:55 | 33.94931 | -118.40189 | 135 ft | 5 kts | 19° |
| 2026-05-07 16:55 | 33.94997 | -118.40197 | 135 ft | 11 kts | 323° |
| 2026-05-07 16:55 | 33.95010 | -118.40255 | 135 ft | 0 kts | 262° |
| 2026-05-07 16:56 | 33.95006 | -118.40285 | 135 ft | 17 kts | 262° |
| 2026-05-07 16:56 | 33.94899 | -118.41331 | 135 ft | 103 kts | 262° |
| 2026-05-07 16:57 | 33.94799 | -118.42312 | 181 ft | 129 kts | 262° |
| 2026-05-07 16:57 | 33.94669 | -118.43428 | 410 ft | 139 kts | 261° |
| 2026-05-07 16:57 | 33.94512 | -118.44594 | 705 ft | 144 kts | 260° |
| 2026-05-07 16:57 | 33.94343 | -118.45776 | 969 ft | 141 kts | 259° |
| 2026-05-07 16:58 | 33.94164 | -118.46942 | 1146 ft | 144 kts | 259° |
| 2026-05-07 16:58 | 33.93975 | -118.48168 | 1328 ft | 151 kts | 258° |
| 2026-05-07 16:58 | 33.93774 | -118.49403 | 1620 ft | 151 kts | 259° |
| 2026-05-07 16:58 | 33.93595 | -118.50651 | 1879 ft | 151 kts | 259° |
| 2026-05-07 16:59 | 33.93415 | -118.51907 | 2058 ft | 155 kts | 261° |
| 2026-05-07 16:59 | 33.93274 | -118.53210 | 2235 ft | 159 kts | 262° |
| 2026-05-07 16:59 | 33.93128 | -118.54524 | 2419 ft | 162 kts | 262° |
| 2026-05-07 16:59 | 33.92981 | -118.55877 | 2616 ft | 164 kts | 262° |
| 2026-05-07 17:00 | 33.92821 | -118.57258 | 2779 ft | 169 kts | 262° |
| 2026-05-07 17:00 | 33.92643 | -118.58668 | 2972 ft | 171 kts | 261° |
| 2026-05-07 17:00 | 33.92301 | -118.60045 | 3150 ft | 174 kts | 246° |
| 2026-05-07 17:00 | 33.91612 | -118.61246 | 3335 ft | 176 kts | 227° |
| 2026-05-07 17:01 | 33.90624 | -118.62110 | 3533 ft | 177 kts | 206° |
| 2026-05-07 17:01 | 33.89440 | -118.62492 | 3736 ft | 177 kts | 184° |
| 2026-05-07 17:01 | 33.88219 | -118.62322 | 3928 ft | 178 kts | 165° |
| 2026-05-07 17:01 | 33.87038 | -118.61870 | 4128 ft | 178 kts | 162° |
| 2026-05-07 17:02 | 33.85859 | -118.61417 | 4325 ft | 178 kts | 160° |
| 2026-05-07 17:02 | 33.84791 | -118.60673 | 4483 ft | 179 kts | 138° |
| 2026-05-07 17:02 | 33.84079 | -118.59452 | 4635 ft | 180 kts | 111° |
| 2026-05-07 17:02 | 33.83851 | -118.57983 | 4812 ft | 179 kts | 88° |
| 2026-05-07 17:03 | 33.83988 | -118.56501 | 5000 ft | 178 kts | 82° |
| 2026-05-07 17:03 | 33.84139 | -118.55023 | 5190 ft | 178 kts | 82° |
| 2026-05-07 17:03 | 33.84281 | -118.53544 | 5370 ft | 178 kts | 82° |
| 2026-05-07 17:03 | 33.84417 | -118.52064 | 5544 ft | 178 kts | 82° |
| 2026-05-07 17:04 | 33.84552 | -118.50579 | 5715 ft | 179 kts | 82° |
| 2026-05-07 17:04 | 33.84687 | -118.49091 | 5884 ft | 179 kts | 82° |
| 2026-05-07 17:04 | 33.84822 | -118.47597 | 6057 ft | 180 kts | 82° |
| 2026-05-07 17:04 | 33.84963 | -118.46093 | 6238 ft | 181 kts | 82° |
| 2026-05-07 17:05 | 33.85105 | -118.44591 | 6418 ft | 181 kts | 82° |
| 2026-05-07 17:05 | 33.85233 | -118.43084 | 6593 ft | 181 kts | 85° |
| 2026-05-07 17:05 | 33.85168 | -118.41565 | 6744 ft | 183 kts | 96° |
| 2026-05-07 17:05 | 33.84925 | -118.40064 | 6913 ft | 183 kts | 100° |
| 2026-05-07 17:06 | 33.84692 | -118.38561 | 7094 ft | 183 kts | 99° |
| 2026-05-07 17:06 | 33.84465 | -118.37053 | 7277 ft | 184 kts | 99° |
| 2026-05-07 17:06 | 33.84240 | -118.35540 | 7461 ft | 184 kts | 99° |
| 2026-05-07 17:06 | 33.84017 | -118.34022 | 7656 ft | 184 kts | 99° |
| 2026-05-07 17:07 | 33.83797 | -118.32505 | 7858 ft | 185 kts | 99° |
| 2026-05-07 17:07 | 33.83572 | -118.30981 | 8057 ft | 185 kts | 100° |
| 2026-05-07 17:07 | 33.83295 | -118.29470 | 8238 ft | 185 kts | 102° |
| 2026-05-07 17:07 | 33.83026 | -118.27952 | 8422 ft | 186 kts | 101° |
| 2026-05-07 17:08 | 33.82760 | -118.26432 | 8607 ft | 186 kts | 101° |
| 2026-05-07 17:08 | 33.82498 | -118.24908 | 8797 ft | 186 kts | 101° |
| 2026-05-07 17:08 | 33.82236 | -118.23378 | 8988 ft | 187 kts | 101° |
| 2026-05-07 17:08 | 33.81973 | -118.21837 | 9154 ft | 189 kts | 101° |
| 2026-05-07 17:09 | 33.81702 | -118.20278 | 9322 ft | 191 kts | 101° |
| 2026-05-07 17:09 | 33.81423 | -118.18714 | 9506 ft | 191 kts | 101° |
| 2026-05-07 17:09 | 33.81116 | -118.17177 | 9693 ft | 191 kts | 103° |
| 2026-05-07 17:09 | 33.80773 | -118.15635 | 9894 ft | 190 kts | 103° |
| 2026-05-07 17:10 | 33.80434 | -118.14097 | 10094 ft | 190 kts | 103° |
| 2026-05-07 17:10 | 33.80093 | -118.12568 | 10292 ft | 189 kts | 103° |
| 2026-05-07 17:10 | 33.79749 | -118.11046 | 10490 ft | 188 kts | 103° |
| 2026-05-07 17:10 | 33.79400 | -118.09527 | 10746 ft | 188 kts | 103° |
| 2026-05-07 17:11 | 33.79046 | -118.08017 | 11003 ft | 187 kts | 103° |
| 2026-05-07 17:11 | 33.78687 | -118.06519 | 11217 ft | 186 kts | 103° |
| 2026-05-07 17:11 | 33.78326 | -118.05025 | 11414 ft | 185 kts | 101° |
| 2026-05-07 17:11 | 33.78186 | -118.03491 | 11656 ft | 184 kts | 91° |
| 2026-05-07 17:12 | 33.78096 | -118.01963 | 12001 ft | 182 kts | 91° |
| 2026-05-07 17:12 | 33.77988 | -118.00441 | 12294 ft | 184 kts | 92° |
| 2026-05-07 17:12 | 33.77820 | -117.98918 | 12461 ft | 184 kts | 94° |
| 2026-05-07 17:12 | 33.77656 | -117.97387 | 12695 ft | 185 kts | 94° |
| 2026-05-07 17:13 | 33.77489 | -117.95851 | 12980 ft | 185 kts | 93° |
| 2026-05-07 17:13 | 33.77321 | -117.94317 | 13231 ft | 185 kts | 93° |
| 2026-05-07 17:13 | 33.77151 | -117.92778 | 13390 ft | 186 kts | 93° |
| 2026-05-07 17:13 | 33.77016 | -117.91231 | 13534 ft | 186 kts | 91° |
| 2026-05-07 17:14 | 33.76890 | -117.89682 | 13682 ft | 186 kts | 91° |
| 2026-05-07 17:14 | 33.76758 | -117.88130 | 13833 ft | 187 kts | 91° |
| 2026-05-07 17:14 | 33.76625 | -117.86578 | 13982 ft | 187 kts | 91° |
| 2026-05-07 17:14 | 33.76487 | -117.85020 | 14119 ft | 188 kts | 91° |
| 2026-05-07 17:15 | 33.76347 | -117.83459 | 14263 ft | 188 kts | 91° |
| 2026-05-07 17:15 | 33.76208 | -117.81896 | 14398 ft | 189 kts | 91° |
| 2026-05-07 17:15 | 33.76063 | -117.80327 | 14564 ft | 189 kts | 91° |
| 2026-05-07 17:15 | 33.75916 | -117.78756 | 14737 ft | 190 kts | 91° |
| 2026-05-07 17:16 | 33.75765 | -117.77179 | 14900 ft | 190 kts | 91° |
| 2026-05-07 17:16 | 33.75614 | -117.75595 | 15056 ft | 191 kts | 91° |
| 2026-05-07 17:16 | 33.75462 | -117.74006 | 15215 ft | 192 kts | 91° |
| 2026-05-07 17:16 | 33.75306 | -117.72416 | 15379 ft | 192 kts | 91° |
| 2026-05-07 17:17 | 33.75148 | -117.70823 | 15538 ft | 192 kts | 91° |
| 2026-05-07 17:17 | 33.74991 | -117.69252 | 15694 ft | 192 kts | 91° |
| 2026-05-07 17:17 | 33.74828 | -117.67634 | 15851 ft | 193 kts | 91° |
| 2026-05-07 17:17 | 33.74677 | -117.66036 | 16006 ft | 192 kts | 90° |
| 2026-05-07 17:18 | 33.74587 | -117.64459 | 16155 ft | 192 kts | 88° |
| 2026-05-07 17:18 | 33.74493 | -117.62858 | 16305 ft | 193 kts | 88° |
| 2026-05-07 17:18 | 33.74398 | -117.61245 | 16462 ft | 194 kts | 88° |
| 2026-05-07 17:18 | 33.74300 | -117.59629 | 16622 ft | 194 kts | 88° |
| 2026-05-07 17:19 | 33.74198 | -117.58010 | 16782 ft | 195 kts | 88° |
| 2026-05-07 17:19 | 33.74094 | -117.56389 | 16940 ft | 195 kts | 89° |
| 2026-05-07 17:19 | 33.73967 | -117.54761 | 17095 ft | 196 kts | 89° |
| 2026-05-07 17:19 | 33.73851 | -117.53133 | 17254 ft | 196 kts | 89° |
| 2026-05-07 17:20 | 33.73736 | -117.51502 | 17409 ft | 196 kts | 88° |
| 2026-05-07 17:20 | 33.73622 | -117.49870 | 17564 ft | 196 kts | 88° |
| 2026-05-07 17:20 | 33.73507 | -117.48232 | 17715 ft | 197 kts | 88° |
| 2026-05-07 17:20 | 33.73389 | -117.46593 | 17870 ft | 197 kts | 88° |
| 2026-05-07 17:21 | 33.73268 | -117.44951 | 18020 ft | 197 kts | 88° |
| 2026-05-07 17:21 | 33.73146 | -117.43308 | 18172 ft | 198 kts | 88° |
| 2026-05-07 17:21 | 33.73025 | -117.41664 | 18322 ft | 198 kts | 88° |
| 2026-05-07 17:21 | 33.72904 | -117.40018 | 18471 ft | 198 kts | 88° |
| 2026-05-07 17:22 | 33.72781 | -117.38370 | 18622 ft | 198 kts | 88° |
| 2026-05-07 17:22 | 33.72655 | -117.36723 | 18771 ft | 198 kts | 88° |
| 2026-05-07 17:22 | 33.72528 | -117.35075 | 18917 ft | 198 kts | 88° |
| 2026-05-07 17:22 | 33.72401 | -117.33423 | 19061 ft | 199 kts | 88° |
| 2026-05-07 17:23 | 33.72275 | -117.31772 | 19203 ft | 199 kts | 88° |
| 2026-05-07 17:23 | 33.72148 | -117.30115 | 19347 ft | 200 kts | 88° |
| 2026-05-07 17:23 | 33.72021 | -117.28453 | 19496 ft | 200 kts | 88° |
| 2026-05-07 17:23 | 33.71894 | -117.26785 | 19648 ft | 201 kts | 88° |
| 2026-05-07 17:24 | 33.71768 | -117.25114 | 19801 ft | 201 kts | 88° |
| 2026-05-07 17:24 | 33.71641 | -117.23439 | 19954 ft | 201 kts | 88° |
| 2026-05-07 17:24 | 33.71515 | -117.21761 | 20106 ft | 202 kts | 88° |
| 2026-05-07 17:24 | 33.71389 | -117.20083 | 20256 ft | 202 kts | 88° |
| 2026-05-07 17:25 | 33.71260 | -117.18397 | 20402 ft | 203 kts | 88° |
| 2026-05-07 17:25 | 33.71132 | -117.16710 | 20551 ft | 203 kts | 88° |
| 2026-05-07 17:25 | 33.71004 | -117.15020 | 20696 ft | 204 kts | 88° |
| 2026-05-07 17:25 | 33.70874 | -117.13325 | 20842 ft | 204 kts | 88° |
| 2026-05-07 17:26 | 33.70745 | -117.11626 | 20989 ft | 205 kts | 88° |
| 2026-05-07 17:26 | 33.70616 | -117.09922 | 21140 ft | 205 kts | 88° |
| 2026-05-07 17:26 | 33.70488 | -117.08194 | 21189 ft | 211 kts | 88° |
| 2026-05-07 17:26 | 33.70361 | -117.06392 | 21118 ft | 222 kts | 88° |
| 2026-05-07 17:27 | 33.70235 | -117.04502 | 21066 ft | 231 kts | 89° |
| 2026-05-07 17:27 | 33.70110 | -117.02546 | 21019 ft | 239 kts | 89° |
| 2026-05-07 17:27 | 33.69984 | -117.00542 | 21077 ft | 240 kts | 89° |
| 2026-05-07 17:27 | 33.69859 | -116.98546 | 21186 ft | 240 kts | 89° |
| 2026-05-07 17:28 | 33.69734 | -116.96521 | 21143 ft | 246 kts | 89° |
| 2026-05-07 17:28 | 33.69610 | -116.94486 | 21118 ft | 250 kts | 89° |
| 2026-05-07 17:28 | 33.69484 | -116.92395 | 21101 ft | 252 kts | 89° |
| 2026-05-07 17:28 | 33.69357 | -116.90295 | 21100 ft | 252 kts | 89° |
| 2026-05-07 17:29 | 33.69229 | -116.88200 | 21097 ft | 252 kts | 89° |
| 2026-05-07 17:29 | 33.69101 | -116.86104 | 21094 ft | 252 kts | 89° |
| 2026-05-07 17:29 | 33.68974 | -116.83998 | 21089 ft | 254 kts | 89° |
| 2026-05-07 17:29 | 33.68847 | -116.81881 | 21084 ft | 255 kts | 89° |
| 2026-05-07 17:30 | 33.68720 | -116.79755 | 21078 ft | 256 kts | 89° |
| 2026-05-07 17:30 | 33.68589 | -116.77625 | 21070 ft | 257 kts | 89° |
| 2026-05-07 17:30 | 33.68402 | -116.75484 | 21062 ft | 258 kts | 90° |
| 2026-05-07 17:30 | 33.68225 | -116.73339 | 21054 ft | 258 kts | 90° |
| 2026-05-07 17:31 | 33.68056 | -116.71194 | 21048 ft | 258 kts | 90° |
| 2026-05-07 17:31 | 33.67889 | -116.69043 | 21043 ft | 259 kts | 90° |
| 2026-05-07 17:31 | 33.67695 | -116.66890 | 21038 ft | 260 kts | 91° |
| 2026-05-07 17:31 | 33.67498 | -116.64737 | 21033 ft | 260 kts | 91° |
| 2026-05-07 17:32 | 33.67301 | -116.62579 | 21029 ft | 260 kts | 91° |
| 2026-05-07 17:32 | 33.67104 | -116.60419 | 21026 ft | 260 kts | 91° |
| 2026-05-07 17:32 | 33.66908 | -116.58257 | 21023 ft | 261 kts | 91° |
| 2026-05-07 17:32 | 33.66779 | -116.56826 | 21021 ft | 261 kts | 91° |
| 2026-05-07 17:33 | 33.66517 | -116.53929 | 21018 ft | 261 kts | 91° |
| 2026-05-07 17:33 | 33.66321 | -116.51763 | 21016 ft | 261 kts | 91° |
| 2026-05-07 17:33 | 33.66126 | -116.49594 | 21014 ft | 261 kts | 91° |
| 2026-05-07 17:33 | 33.65930 | -116.47425 | 21012 ft | 261 kts | 91° |
| 2026-05-07 17:34 | 33.65735 | -116.45256 | 21010 ft | 262 kts | 91° |
| 2026-05-07 17:34 | 33.65539 | -116.43085 | 21008 ft | 262 kts | 91° |
| 2026-05-07 17:34 | 33.65344 | -116.40914 | 21007 ft | 262 kts | 91° |
| 2026-05-07 17:34 | 33.65147 | -116.38762 | 21005 ft | 262 kts | 91° |
| 2026-05-07 17:35 | 33.64949 | -116.36591 | 21003 ft | 262 kts | 91° |
| 2026-05-07 17:35 | 33.64749 | -116.34413 | 21000 ft | 262 kts | 91° |
| 2026-05-07 17:35 | 33.64550 | -116.32236 | 20997 ft | 262 kts | 91° |
| 2026-05-07 17:35 | 33.64350 | -116.30051 | 21008 ft | 266 kts | 91° |
| 2026-05-07 17:36 | 33.64150 | -116.27821 | 20997 ft | 271 kts | 91° |
| 2026-05-07 17:36 | 33.64018 | -116.26332 | 20981 ft | 271 kts | 91° |
| 2026-05-07 17:36 | 33.63817 | -116.24082 | 20981 ft | 271 kts | 91° |
| 2026-05-07 17:36 | 33.63617 | -116.21833 | 20981 ft | 271 kts | 91° |
| 2026-05-07 17:37 | 33.63416 | -116.19587 | 20980 ft | 271 kts | 91° |
| 2026-05-07 17:37 | 33.63216 | -116.17344 | 20979 ft | 270 kts | 91° |
| 2026-05-07 17:37 | 33.63015 | -116.15102 | 20979 ft | 270 kts | 91° |
| 2026-05-07 17:37 | 33.62815 | -116.12864 | 20979 ft | 270 kts | 91° |
| 2026-05-07 17:38 | 33.62615 | -116.10627 | 20979 ft | 270 kts | 91° |
| 2026-05-07 17:38 | 33.62415 | -116.08391 | 20979 ft | 269 kts | 91° |
| 2026-05-07 17:38 | 33.62214 | -116.06157 | 20980 ft | 269 kts | 91° |
| 2026-05-07 17:38 | 33.62014 | -116.03926 | 20980 ft | 269 kts | 91° |
| 2026-05-07 17:39 | 33.61953 | -116.01705 | 20977 ft | 265 kts | 84° |
| 2026-05-07 17:39 | 33.62178 | -115.99533 | 20980 ft | 260 kts | 76° |
| 2026-05-07 17:39 | 33.62666 | -115.97464 | 20985 ft | 257 kts | 68° |
| 2026-05-07 17:39 | 33.63259 | -115.95448 | 20987 ft | 256 kts | 66° |
| 2026-05-07 17:40 | 33.63864 | -115.93434 | 20985 ft | 256 kts | 66° |
| 2026-05-07 17:40 | 33.64548 | -115.91469 | 20985 ft | 255 kts | 63° |
| 2026-05-07 17:40 | 33.65245 | -115.89514 | 20985 ft | 255 kts | 63° |
| 2026-05-07 17:40 | 33.65939 | -115.87554 | 20985 ft | 255 kts | 64° |
| 2026-05-07 17:41 | 33.66628 | -115.85599 | 20985 ft | 255 kts | 64° |
| 2026-05-07 17:41 | 33.67313 | -115.83650 | 20986 ft | 255 kts | 64° |
| 2026-05-07 17:41 | 33.68005 | -115.81681 | 20987 ft | 254 kts | 64° |
| 2026-05-07 17:41 | 33.68692 | -115.79726 | 20995 ft | 254 kts | 64° |
| 2026-05-07 17:42 | 33.69378 | -115.77772 | 21004 ft | 254 kts | 64° |
| 2026-05-07 17:42 | 33.70064 | -115.75823 | 21008 ft | 253 kts | 64° |
| 2026-05-07 17:42 | 33.70750 | -115.73876 | 21011 ft | 253 kts | 64° |
| 2026-05-07 17:42 | 33.71437 | -115.71929 | 21013 ft | 253 kts | 64° |
| 2026-05-07 17:43 | 33.72123 | -115.69982 | 21015 ft | 253 kts | 64° |
| 2026-05-07 17:43 | 33.72809 | -115.68036 | 21017 ft | 253 kts | 64° |
| 2026-05-07 17:43 | 33.73494 | -115.66093 | 21019 ft | 253 kts | 64° |
| 2026-05-07 17:43 | 33.74170 | -115.64174 | 21020 ft | 253 kts | 64° |
| 2026-05-07 17:44 | 33.74856 | -115.62228 | 21022 ft | 252 kts | 64° |
| 2026-05-07 17:44 | 33.75541 | -115.60285 | 21024 ft | 252 kts | 64° |
| 2026-05-07 17:44 | 33.76225 | -115.58343 | 21025 ft | 252 kts | 64° |
| 2026-05-07 17:44 | 33.76910 | -115.56399 | 21026 ft | 252 kts | 64° |
| 2026-05-07 17:45 | 33.77593 | -115.54458 | 21027 ft | 252 kts | 64° |
| 2026-05-07 17:45 | 33.78277 | -115.52518 | 21028 ft | 252 kts | 64° |
| 2026-05-07 17:45 | 33.78961 | -115.50576 | 21028 ft | 252 kts | 64° |
| 2026-05-07 17:45 | 33.79644 | -115.48635 | 21028 ft | 252 kts | 64° |
| 2026-05-07 17:46 | 33.80328 | -115.46694 | 21029 ft | 252 kts | 64° |
| 2026-05-07 17:46 | 33.81011 | -115.44752 | 21029 ft | 252 kts | 64° |
| 2026-05-07 17:46 | 33.81696 | -115.42811 | 21029 ft | 252 kts | 64° |
| 2026-05-07 17:46 | 33.82382 | -115.40871 | 21029 ft | 252 kts | 64° |
| 2026-05-07 17:47 | 33.83069 | -115.38931 | 21028 ft | 252 kts | 64° |
| 2026-05-07 17:47 | 33.83755 | -115.36991 | 21028 ft | 252 kts | 64° |
| 2026-05-07 17:47 | 33.84441 | -115.35052 | 21028 ft | 252 kts | 64° |
| 2026-05-07 17:47 | 33.85129 | -115.33108 | 21032 ft | 253 kts | 64° |
| 2026-05-07 17:48 | 33.85799 | -115.31137 | 21030 ft | 256 kts | 65° |
| 2026-05-07 17:48 | 33.86441 | -115.29132 | 21023 ft | 257 kts | 65° |
| 2026-05-07 17:48 | 33.87081 | -115.27127 | 21024 ft | 257 kts | 66° |
| 2026-05-07 17:48 | 33.87721 | -115.25120 | 21024 ft | 257 kts | 65° |
| 2026-05-07 17:49 | 33.88358 | -115.23115 | 21024 ft | 256 kts | 66° |
| 2026-05-07 17:49 | 33.88995 | -115.21111 | 21023 ft | 256 kts | 66° |
| 2026-05-07 17:49 | 33.89631 | -115.19107 | 21022 ft | 256 kts | 66° |
| 2026-05-07 17:49 | 33.90258 | -115.17131 | 21022 ft | 256 kts | 66° |
| 2026-05-07 17:50 | 33.90894 | -115.15127 | 21021 ft | 256 kts | 66° |
| 2026-05-07 17:50 | 33.91529 | -115.13124 | 21020 ft | 256 kts | 66° |
| 2026-05-07 17:50 | 33.92164 | -115.11123 | 21019 ft | 256 kts | 66° |
| 2026-05-07 17:50 | 33.92800 | -115.09119 | 21019 ft | 256 kts | 66° |
| 2026-05-07 17:51 | 33.93434 | -115.07119 | 21018 ft | 256 kts | 66° |
| 2026-05-07 17:51 | 33.94070 | -115.05120 | 21016 ft | 256 kts | 66° |
| 2026-05-07 17:51 | 33.94707 | -115.03120 | 21015 ft | 256 kts | 66° |
| 2026-05-07 17:51 | 33.95344 | -115.01120 | 21015 ft | 256 kts | 66° |
| 2026-05-07 17:52 | 33.95981 | -114.99122 | 21014 ft | 256 kts | 66° |
| 2026-05-07 17:52 | 33.96618 | -114.97124 | 21014 ft | 255 kts | 66° |
| 2026-05-07 17:52 | 33.97254 | -114.95128 | 21013 ft | 255 kts | 66° |
| 2026-05-07 17:52 | 33.97891 | -114.93130 | 21013 ft | 255 kts | 66° |
| 2026-05-07 17:53 | 33.98527 | -114.91134 | 21013 ft | 255 kts | 66° |
| 2026-05-07 17:53 | 33.99163 | -114.89138 | 21012 ft | 255 kts | 66° |
| 2026-05-07 17:53 | 33.99798 | -114.87143 | 21012 ft | 255 kts | 66° |
| 2026-05-07 17:53 | 34.00435 | -114.85148 | 21011 ft | 255 kts | 66° |
| 2026-05-07 17:54 | 34.01075 | -114.83154 | 21011 ft | 255 kts | 66° |
| 2026-05-07 17:54 | 34.01715 | -114.81162 | 21011 ft | 255 kts | 66° |
| 2026-05-07 17:54 | 34.02356 | -114.79168 | 21011 ft | 255 kts | 66° |
| 2026-05-07 17:54 | 34.02997 | -114.77176 | 21012 ft | 255 kts | 66° |
| 2026-05-07 17:55 | 34.03637 | -114.75184 | 21012 ft | 255 kts | 66° |
| 2026-05-07 17:55 | 34.04279 | -114.73191 | 21012 ft | 255 kts | 66° |
| 2026-05-07 17:55 | 34.04920 | -114.71198 | 21012 ft | 255 kts | 66° |
| 2026-05-07 17:55 | 34.05560 | -114.69207 | 21012 ft | 255 kts | 66° |
| 2026-05-07 17:56 | 34.06201 | -114.67215 | 21012 ft | 255 kts | 66° |
| 2026-05-07 17:56 | 34.06842 | -114.65224 | 21012 ft | 255 kts | 66° |
| 2026-05-07 17:56 | 34.07483 | -114.63232 | 21012 ft | 255 kts | 66° |
| 2026-05-07 17:56 | 34.08123 | -114.61240 | 21012 ft | 255 kts | 66° |
| 2026-05-07 17:57 | 34.08764 | -114.59249 | 21008 ft | 255 kts | 66° |
| 2026-05-07 17:57 | 34.09188 | -114.57930 | 21007 ft | 255 kts | 66° |
| 2026-05-07 17:57 | 34.10046 | -114.55263 | 21006 ft | 255 kts | 66° |
| 2026-05-07 17:57 | 34.10686 | -114.53271 | 21006 ft | 255 kts | 66° |
| 2026-05-07 17:58 | 34.11327 | -114.51279 | 21006 ft | 255 kts | 66° |
| 2026-05-07 17:58 | 34.11969 | -114.49287 | 21007 ft | 255 kts | 66° |
| 2026-05-07 17:58 | 34.12610 | -114.47296 | 21007 ft | 255 kts | 66° |
| 2026-05-07 17:58 | 34.13250 | -114.45305 | 21007 ft | 254 kts | 66° |
| 2026-05-07 17:59 | 34.13882 | -114.43342 | 21007 ft | 254 kts | 66° |
| 2026-05-07 17:59 | 34.14531 | -114.41325 | 21007 ft | 254 kts | 66° |
| 2026-05-07 17:59 | 34.15162 | -114.39361 | 21007 ft | 254 kts | 66° |
| 2026-05-07 17:59 | 34.15802 | -114.37371 | 21008 ft | 254 kts | 66° |
| 2026-05-07 18:00 | 34.16441 | -114.35383 | 21010 ft | 254 kts | 66° |
| 2026-05-07 18:00 | 34.17080 | -114.33395 | 21014 ft | 254 kts | 66° |
| 2026-05-07 18:00 | 34.17719 | -114.31408 | 21016 ft | 254 kts | 66° |
| 2026-05-07 18:00 | 34.18358 | -114.29420 | 21017 ft | 254 kts | 66° |
| 2026-05-07 18:01 | 34.18997 | -114.27431 | 21017 ft | 254 kts | 66° |
| 2026-05-07 18:01 | 34.19638 | -114.25438 | 21016 ft | 254 kts | 66° |
| 2026-05-07 18:01 | 34.20278 | -114.23446 | 21017 ft | 254 kts | 66° |
| 2026-05-07 18:01 | 34.20918 | -114.21453 | 21017 ft | 254 kts | 66° |
| 2026-05-07 18:02 | 34.22199 | -114.17473 | 21018 ft | 254 kts | 66° |
| 2026-05-07 18:02 | 34.22840 | -114.15485 | 21018 ft | 254 kts | 66° |
| 2026-05-07 18:02 | 34.23481 | -114.13494 | 21019 ft | 254 kts | 66° |
| 2026-05-07 18:03 | 34.24120 | -114.11506 | 21019 ft | 254 kts | 66° |
| 2026-05-07 18:03 | 34.24760 | -114.09517 | 21019 ft | 254 kts | 66° |
| 2026-05-07 18:03 | 34.25366 | -114.07513 | 21019 ft | 254 kts | 68° |
| 2026-05-07 18:03 | 34.25929 | -114.05485 | 21021 ft | 254 kts | 68° |
| 2026-05-07 18:04 | 34.26498 | -114.03464 | 21021 ft | 254 kts | 68° |
| 2026-05-07 18:04 | 34.27071 | -114.01444 | 21021 ft | 254 kts | 68° |
| 2026-05-07 18:04 | 34.27644 | -113.99424 | 21022 ft | 254 kts | 68° |
| 2026-05-07 18:04 | 34.28224 | -113.97407 | 21019 ft | 254 kts | 68° |
| 2026-05-07 18:05 | 34.28810 | -113.95389 | 21022 ft | 254 kts | 68° |
| 2026-05-07 18:05 | 34.29399 | -113.93373 | 21024 ft | 255 kts | 68° |
| 2026-05-07 18:05 | 34.29990 | -113.91354 | 21024 ft | 255 kts | 68° |
| 2026-05-07 18:05 | 34.30582 | -113.89334 | 21024 ft | 255 kts | 68° |
| 2026-05-07 18:06 | 34.31146 | -113.87297 | 21025 ft | 256 kts | 69° |
| 2026-05-07 18:06 | 34.31696 | -113.85254 | 21026 ft | 256 kts | 69° |
| 2026-05-07 18:06 | 34.32254 | -113.83212 | 21027 ft | 256 kts | 69° |
| 2026-05-07 18:06 | 34.32815 | -113.81169 | 21029 ft | 256 kts | 69° |
| 2026-05-07 18:07 | 34.33377 | -113.79126 | 21030 ft | 256 kts | 69° |
| 2026-05-07 18:07 | 34.33940 | -113.77082 | 21031 ft | 256 kts | 69° |
| 2026-05-07 18:07 | 34.34504 | -113.75035 | 21033 ft | 256 kts | 69° |
| 2026-05-07 18:07 | 34.35069 | -113.72989 | 21034 ft | 257 kts | 69° |
| 2026-05-07 18:08 | 34.35635 | -113.70941 | 21036 ft | 257 kts | 69° |
| 2026-05-07 18:08 | 34.36202 | -113.68893 | 21038 ft | 257 kts | 69° |
| 2026-05-07 18:08 | 34.36770 | -113.66844 | 21039 ft | 257 kts | 69° |
| 2026-05-07 18:08 | 34.37338 | -113.64793 | 21041 ft | 257 kts | 69° |
| 2026-05-07 18:09 | 34.37906 | -113.62741 | 21043 ft | 257 kts | 69° |
| 2026-05-07 18:09 | 34.38475 | -113.60689 | 21045 ft | 257 kts | 69° |
| 2026-05-07 18:09 | 34.39043 | -113.58637 | 21047 ft | 257 kts | 69° |
| 2026-05-07 18:09 | 34.39612 | -113.56581 | 21047 ft | 257 kts | 69° |
| 2026-05-07 18:10 | 34.40179 | -113.54523 | 21048 ft | 258 kts | 69° |
| 2026-05-07 18:10 | 34.40744 | -113.52465 | 21049 ft | 258 kts | 69° |
| 2026-05-07 18:10 | 34.41311 | -113.50406 | 21052 ft | 258 kts | 69° |
| 2026-05-07 18:10 | 34.41880 | -113.48344 | 21056 ft | 258 kts | 69° |
| 2026-05-07 18:11 | 34.42443 | -113.46303 | 21058 ft | 259 kts | 69° |
| 2026-05-07 18:11 | 34.42830 | -113.44902 | 21058 ft | 260 kts | 69° |
| 2026-05-07 18:11 | 34.43587 | -113.42156 | 21062 ft | 260 kts | 69° |
| 2026-05-07 18:11 | 34.44160 | -113.40084 | 21066 ft | 259 kts | 69° |
| 2026-05-07 18:12 | 34.44733 | -113.38014 | 21091 ft | 259 kts | 69° |
| 2026-05-07 18:12 | 34.45305 | -113.35951 | 21109 ft | 258 kts | 69° |
| 2026-05-07 18:12 | 34.45875 | -113.33891 | 21117 ft | 258 kts | 69° |
| 2026-05-07 18:12 | 34.46445 | -113.31831 | 21120 ft | 258 kts | 69° |
| 2026-05-07 18:13 | 34.47016 | -113.29770 | 21122 ft | 258 kts | 69° |
| 2026-05-07 18:13 | 34.47588 | -113.27708 | 21123 ft | 258 kts | 69° |
| 2026-05-07 18:13 | 34.48160 | -113.25648 | 21125 ft | 258 kts | 69° |
| 2026-05-07 18:13 | 34.48736 | -113.23578 | 21141 ft | 261 kts | 69° |
| 2026-05-07 18:14 | 34.49323 | -113.21475 | 21137 ft | 266 kts | 69° |
| 2026-05-07 18:14 | 34.49917 | -113.19341 | 21123 ft | 267 kts | 69° |
| 2026-05-07 18:14 | 34.50510 | -113.17209 | 21129 ft | 267 kts | 69° |
| 2026-05-07 18:14 | 34.51102 | -113.15079 | 21134 ft | 266 kts | 69° |
| 2026-05-07 18:15 | 34.51694 | -113.12952 | 21137 ft | 266 kts | 69° |
| 2026-05-07 18:15 | 34.52285 | -113.10828 | 21140 ft | 266 kts | 69° |
| 2026-05-07 18:15 | 34.52877 | -113.08705 | 21142 ft | 266 kts | 69° |
| 2026-05-07 18:15 | 34.53467 | -113.06585 | 21144 ft | 265 kts | 69° |
| 2026-05-07 18:16 | 34.54057 | -113.04466 | 21147 ft | 265 kts | 69° |
| 2026-05-07 18:16 | 34.54647 | -113.02347 | 21149 ft | 265 kts | 69° |
| 2026-05-07 18:16 | 34.55237 | -113.00231 | 21152 ft | 265 kts | 69° |
| 2026-05-07 18:16 | 34.55827 | -112.98119 | 21154 ft | 264 kts | 69° |
| 2026-05-07 18:17 | 34.56417 | -112.96006 | 21157 ft | 264 kts | 69° |
| 2026-05-07 18:17 | 34.57007 | -112.93895 | 21159 ft | 264 kts | 69° |
| 2026-05-07 18:17 | 34.57597 | -112.91785 | 21162 ft | 264 kts | 69° |
| 2026-05-07 18:17 | 34.58189 | -112.89669 | 21174 ft | 267 kts | 69° |
| 2026-05-07 18:18 | 34.58794 | -112.87517 | 21168 ft | 272 kts | 69° |
| 2026-05-07 18:18 | 34.59406 | -112.85344 | 21152 ft | 272 kts | 69° |
| 2026-05-07 18:18 | 34.60018 | -112.83174 | 21159 ft | 271 kts | 69° |
| 2026-05-07 18:18 | 34.60607 | -112.81003 | 21165 ft | 271 kts | 70° |
| 2026-05-07 18:19 | 34.61183 | -112.78826 | 21169 ft | 270 kts | 70° |
| 2026-05-07 18:19 | 34.61759 | -112.76656 | 21172 ft | 270 kts | 70° |
| 2026-05-07 18:19 | 34.62334 | -112.74489 | 21175 ft | 270 kts | 70° |
| 2026-05-07 18:19 | 34.62910 | -112.72315 | 21186 ft | 272 kts | 70° |
| 2026-05-07 18:20 | 34.63491 | -112.70120 | 21183 ft | 275 kts | 70° |
| 2026-05-07 18:20 | 34.64077 | -112.67908 | 21177 ft | 274 kts | 70° |
| 2026-05-07 18:20 | 34.64660 | -112.65706 | 21182 ft | 274 kts | 70° |
| 2026-05-07 18:20 | 34.65242 | -112.63508 | 21186 ft | 273 kts | 70° |
| 2026-05-07 18:21 | 34.65824 | -112.61316 | 21194 ft | 272 kts | 70° |
| 2026-05-07 18:21 | 34.66396 | -112.59159 | 21198 ft | 272 kts | 70° |
| 2026-05-07 18:21 | 34.66975 | -112.56975 | 21199 ft | 271 kts | 70° |
| 2026-05-07 18:21 | 34.67553 | -112.54796 | 21199 ft | 271 kts | 70° |
| 2026-05-07 18:22 | 34.68129 | -112.52620 | 21199 ft | 270 kts | 70° |
| 2026-05-07 18:22 | 34.68324 | -112.51884 | 21199 ft | 270 kts | 70° |
| 2026-05-07 18:22 | 34.69281 | -112.48275 | 21199 ft | 270 kts | 70° |
| 2026-05-07 18:22 | 34.69855 | -112.46107 | 21199 ft | 269 kts | 70° |
| 2026-05-07 18:23 | 34.70431 | -112.43941 | 21199 ft | 269 kts | 70° |
| 2026-05-07 18:23 | 34.71005 | -112.41780 | 21199 ft | 269 kts | 70° |
| 2026-05-07 18:23 | 34.71580 | -112.39618 | 21199 ft | 268 kts | 70° |
| 2026-05-07 18:23 | 34.72154 | -112.37460 | 21199 ft | 268 kts | 70° |
| 2026-05-07 18:24 | 34.72541 | -112.36005 | 21199 ft | 268 kts | 70° |
| 2026-05-07 18:24 | 34.73114 | -112.33848 | 21197 ft | 268 kts | 70° |
| 2026-05-07 18:24 | 34.73678 | -112.31725 | 21196 ft | 268 kts | 70° |
| 2026-05-07 18:24 | 34.74187 | -112.29546 | 21195 ft | 268 kts | 72° |
| 2026-05-07 18:25 | 34.74686 | -112.27368 | 21196 ft | 267 kts | 72° |
| 2026-05-07 18:25 | 34.75187 | -112.25192 | 21196 ft | 267 kts | 72° |
| 2026-05-07 18:25 | 34.75690 | -112.23017 | 21195 ft | 267 kts | 72° |
| 2026-05-07 18:25 | 34.76193 | -112.20843 | 21201 ft | 268 kts | 72° |
| 2026-05-07 18:26 | 34.76701 | -112.18650 | 21201 ft | 271 kts | 72° |
| 2026-05-07 18:26 | 34.77214 | -112.16441 | 21196 ft | 272 kts | 72° |
| 2026-05-07 18:26 | 34.77727 | -112.14231 | 21200 ft | 271 kts | 72° |
| 2026-05-07 18:26 | 34.78239 | -112.12027 | 21201 ft | 271 kts | 72° |
| 2026-05-07 18:27 | 34.78750 | -112.09825 | 21201 ft | 270 kts | 72° |
| 2026-05-07 18:27 | 34.79260 | -112.07627 | 21200 ft | 270 kts | 72° |
| 2026-05-07 18:27 | 34.79769 | -112.05429 | 21199 ft | 270 kts | 72° |
| 2026-05-07 18:27 | 34.80276 | -112.03232 | 21199 ft | 270 kts | 72° |
| 2026-05-07 18:28 | 34.80785 | -112.01030 | 21197 ft | 271 kts | 72° |
| 2026-05-07 18:28 | 34.81294 | -111.98826 | 21191 ft | 271 kts | 72° |
| 2026-05-07 18:28 | 34.81809 | -111.96622 | 21188 ft | 271 kts | 72° |
| 2026-05-07 18:28 | 34.82326 | -111.94417 | 21188 ft | 271 kts | 72° |
| 2026-05-07 18:29 | 34.82844 | -111.92212 | 21187 ft | 271 kts | 72° |
| 2026-05-07 18:29 | 34.83362 | -111.90008 | 21185 ft | 271 kts | 72° |
| 2026-05-07 18:29 | 34.83881 | -111.87802 | 21184 ft | 271 kts | 72° |
| 2026-05-07 18:29 | 34.84400 | -111.85596 | 21181 ft | 271 kts | 72° |
| 2026-05-07 18:30 | 34.84920 | -111.83389 | 21174 ft | 271 kts | 72° |
| 2026-05-07 18:30 | 34.85439 | -111.81181 | 21171 ft | 272 kts | 72° |
| 2026-05-07 18:30 | 34.85959 | -111.78970 | 21170 ft | 272 kts | 72° |
| 2026-05-07 18:30 | 34.86480 | -111.76758 | 21172 ft | 272 kts | 72° |
| 2026-05-07 18:31 | 34.86999 | -111.74539 | 21172 ft | 273 kts | 72° |
| 2026-05-07 18:31 | 34.87470 | -111.72291 | 21171 ft | 274 kts | 73° |
| 2026-05-07 18:31 | 34.87949 | -111.70049 | 21175 ft | 274 kts | 73° |
| 2026-05-07 18:31 | 34.88434 | -111.67813 | 21180 ft | 273 kts | 73° |
| 2026-05-07 18:32 | 34.88917 | -111.65605 | 21186 ft | 273 kts | 73° |
| 2026-05-07 18:32 | 34.89406 | -111.63373 | 21192 ft | 273 kts | 73° |
| 2026-05-07 18:32 | 34.89896 | -111.61144 | 21198 ft | 272 kts | 73° |
| 2026-05-07 18:32 | 34.90385 | -111.58917 | 21205 ft | 272 kts | 73° |
| 2026-05-07 18:33 | 34.90874 | -111.56691 | 21211 ft | 272 kts | 73° |
| 2026-05-07 18:33 | 34.91362 | -111.54469 | 21217 ft | 272 kts | 73° |
| 2026-05-07 18:33 | 34.91851 | -111.52248 | 21223 ft | 271 kts | 73° |
| 2026-05-07 18:33 | 34.92339 | -111.50030 | 21227 ft | 271 kts | 73° |
| 2026-05-07 18:34 | 34.92827 | -111.47812 | 21230 ft | 271 kts | 73° |
| 2026-05-07 18:34 | 34.93316 | -111.45594 | 21233 ft | 271 kts | 73° |
| 2026-05-07 18:34 | 34.93804 | -111.43378 | 21235 ft | 271 kts | 73° |
| 2026-05-07 18:34 | 34.94292 | -111.41162 | 21237 ft | 271 kts | 73° |
| 2026-05-07 18:35 | 34.94780 | -111.38948 | 21238 ft | 271 kts | 73° |
| 2026-05-07 18:35 | 34.95268 | -111.36730 | 21239 ft | 271 kts | 73° |
| 2026-05-07 18:35 | 34.95756 | -111.34515 | 21240 ft | 271 kts | 73° |
| 2026-05-07 18:35 | 34.96245 | -111.32300 | 21240 ft | 271 kts | 73° |
| 2026-05-07 18:36 | 34.96734 | -111.30085 | 21243 ft | 271 kts | 73° |
| 2026-05-07 18:36 | 34.97223 | -111.27871 | 21245 ft | 270 kts | 73° |
| 2026-05-07 18:36 | 34.97712 | -111.25655 | 21245 ft | 270 kts | 73° |
| 2026-05-07 18:36 | 34.98201 | -111.23443 | 21245 ft | 270 kts | 73° |
| 2026-05-07 18:37 | 34.98689 | -111.21234 | 21245 ft | 269 kts | 73° |
| 2026-05-07 18:37 | 34.99173 | -111.19040 | 21244 ft | 267 kts | 73° |
| 2026-05-07 18:37 | 34.99656 | -111.16857 | 21244 ft | 266 kts | 73° |
| 2026-05-07 18:37 | 35.00135 | -111.14685 | 21244 ft | 265 kts | 73° |
| 2026-05-07 18:38 | 35.00608 | -111.12520 | 21243 ft | 263 kts | 73° |
| 2026-05-07 18:38 | 35.01039 | -111.10354 | 21243 ft | 262 kts | 74° |
| 2026-05-07 18:38 | 35.01475 | -111.08200 | 21243 ft | 261 kts | 74° |
| 2026-05-07 18:38 | 35.01913 | -111.06047 | 21243 ft | 261 kts | 74° |
| 2026-05-07 18:39 | 35.02353 | -111.03897 | 21243 ft | 261 kts | 73° |
| 2026-05-07 18:39 | 35.02788 | -111.01772 | 21242 ft | 262 kts | 74° |
| 2026-05-07 18:39 | 35.03237 | -110.99591 | 21242 ft | 262 kts | 74° |
| 2026-05-07 18:39 | 35.03675 | -110.97470 | 21241 ft | 262 kts | 73° |
| 2026-05-07 18:40 | 35.04120 | -110.95316 | 21241 ft | 262 kts | 74° |
| 2026-05-07 18:40 | 35.04566 | -110.93164 | 21240 ft | 262 kts | 73° |
| 2026-05-07 18:40 | 35.05013 | -110.91012 | 21240 ft | 262 kts | 73° |
| 2026-05-07 18:40 | 35.05459 | -110.88861 | 21240 ft | 262 kts | 73° |
| 2026-05-07 18:41 | 35.05905 | -110.86708 | 21240 ft | 262 kts | 73° |
| 2026-05-07 18:41 | 35.06352 | -110.84554 | 21240 ft | 261 kts | 73° |
| 2026-05-07 18:41 | 35.06797 | -110.82410 | 21239 ft | 260 kts | 73° |
| 2026-05-07 18:41 | 35.07239 | -110.80275 | 21239 ft | 259 kts | 73° |
| 2026-05-07 18:42 | 35.07680 | -110.78149 | 21239 ft | 258 kts | 73° |
| 2026-05-07 18:42 | 35.08118 | -110.76032 | 21239 ft | 257 kts | 73° |
| 2026-05-07 18:42 | 35.08555 | -110.73919 | 21228 ft | 256 kts | 73° |
| 2026-05-07 18:42 | 35.08992 | -110.71811 | 21228 ft | 255 kts | 73° |
| 2026-05-07 18:43 | 35.09427 | -110.69713 | 21234 ft | 254 kts | 73° |
| 2026-05-07 18:43 | 35.09859 | -110.67621 | 21238 ft | 254 kts | 73° |
| 2026-05-07 18:43 | 35.10292 | -110.65524 | 21240 ft | 255 kts | 73° |
| 2026-05-07 18:43 | 35.10726 | -110.63424 | 21240 ft | 255 kts | 73° |
| 2026-05-07 18:44 | 35.11162 | -110.61319 | 21241 ft | 256 kts | 73° |
| 2026-05-07 18:44 | 35.11598 | -110.59208 | 21241 ft | 256 kts | 73° |
| 2026-05-07 18:44 | 35.12034 | -110.57094 | 21241 ft | 257 kts | 73° |
| 2026-05-07 18:44 | 35.12471 | -110.54976 | 21242 ft | 257 kts | 73° |
| 2026-05-07 18:45 | 35.12909 | -110.52854 | 21242 ft | 258 kts | 73° |
| 2026-05-07 18:45 | 35.13347 | -110.50728 | 21243 ft | 258 kts | 73° |
| 2026-05-07 18:45 | 35.13787 | -110.48600 | 21243 ft | 259 kts | 73° |
| 2026-05-07 18:45 | 35.14226 | -110.46466 | 21243 ft | 259 kts | 73° |
| 2026-05-07 18:46 | 35.14667 | -110.44328 | 21246 ft | 260 kts | 74° |
| 2026-05-07 18:46 | 35.15109 | -110.42187 | 21246 ft | 260 kts | 73° |
| 2026-05-07 18:46 | 35.15551 | -110.40043 | 21245 ft | 261 kts | 73° |
| 2026-05-07 18:46 | 35.15987 | -110.37923 | 21244 ft | 261 kts | 73° |
| 2026-05-07 18:47 | 35.16429 | -110.35771 | 21244 ft | 261 kts | 73° |
| 2026-05-07 18:47 | 35.16872 | -110.33614 | 21244 ft | 262 kts | 73° |
| 2026-05-07 18:47 | 35.17315 | -110.31456 | 21245 ft | 262 kts | 73° |
| 2026-05-07 18:47 | 35.17758 | -110.29294 | 21245 ft | 262 kts | 73° |
| 2026-05-07 18:48 | 35.18201 | -110.27129 | 21246 ft | 263 kts | 73° |
| 2026-05-07 18:48 | 35.18644 | -110.24963 | 21246 ft | 263 kts | 73° |
| 2026-05-07 18:48 | 35.19088 | -110.22793 | 21246 ft | 263 kts | 73° |
| 2026-05-07 18:48 | 35.19531 | -110.20622 | 21247 ft | 263 kts | 73° |
| 2026-05-07 18:49 | 35.19974 | -110.18449 | 21247 ft | 264 kts | 73° |
| 2026-05-07 18:49 | 35.20418 | -110.16273 | 21248 ft | 264 kts | 73° |
| 2026-05-07 18:49 | 35.20862 | -110.14094 | 21248 ft | 264 kts | 73° |
| 2026-05-07 18:49 | 35.21305 | -110.11914 | 21248 ft | 264 kts | 73° |
| 2026-05-07 18:50 | 35.21749 | -110.09731 | 21249 ft | 265 kts | 73° |
| 2026-05-07 18:50 | 35.22193 | -110.07547 | 21250 ft | 265 kts | 73° |
| 2026-05-07 18:50 | 35.22637 | -110.05359 | 21250 ft | 265 kts | 73° |
| 2026-05-07 18:50 | 35.23081 | -110.03172 | 21251 ft | 265 kts | 73° |
| 2026-05-07 18:51 | 35.23525 | -110.00981 | 21249 ft | 266 kts | 73° |
| 2026-05-07 18:51 | 35.23969 | -109.98788 | 21246 ft | 266 kts | 73° |
| 2026-05-07 18:51 | 35.24409 | -109.96590 | 21245 ft | 266 kts | 73° |
| 2026-05-07 18:51 | 35.24845 | -109.94387 | 21244 ft | 267 kts | 73° |
| 2026-05-07 18:52 | 35.25281 | -109.92178 | 21244 ft | 267 kts | 73° |
| 2026-05-07 18:52 | 35.25717 | -109.89970 | 21247 ft | 267 kts | 73° |
| 2026-05-07 18:52 | 35.26152 | -109.87759 | 21249 ft | 267 kts | 73° |
| 2026-05-07 18:52 | 35.26589 | -109.85546 | 21250 ft | 268 kts | 73° |
| 2026-05-07 18:53 | 35.27025 | -109.83331 | 21250 ft | 268 kts | 73° |
| 2026-05-07 18:53 | 35.27462 | -109.81112 | 21251 ft | 268 kts | 73° |
| 2026-05-07 18:53 | 35.27900 | -109.78893 | 21251 ft | 268 kts | 73° |
| 2026-05-07 18:53 | 35.28337 | -109.76673 | 21251 ft | 269 kts | 73° |
| 2026-05-07 18:54 | 35.28776 | -109.74447 | 21251 ft | 269 kts | 73° |
| 2026-05-07 18:54 | 35.29215 | -109.72220 | 21251 ft | 269 kts | 73° |
| 2026-05-07 18:54 | 35.29654 | -109.69993 | 21251 ft | 269 kts | 73° |
| 2026-05-07 18:54 | 35.30095 | -109.67761 | 21251 ft | 270 kts | 73° |
| 2026-05-07 18:55 | 35.30529 | -109.65560 | 21252 ft | 270 kts | 73° |
| 2026-05-07 18:55 | 35.30970 | -109.63325 | 21252 ft | 270 kts | 73° |
| 2026-05-07 18:55 | 35.31411 | -109.61089 | 21252 ft | 270 kts | 74° |
| 2026-05-07 18:55 | 35.31856 | -109.58853 | 21252 ft | 271 kts | 74° |
| 2026-05-07 18:56 | 35.32303 | -109.56615 | 21252 ft | 271 kts | 74° |
| 2026-05-07 18:56 | 35.32751 | -109.54376 | 21253 ft | 271 kts | 73° |
| 2026-05-07 18:56 | 35.33199 | -109.52134 | 21253 ft | 271 kts | 73° |
| 2026-05-07 18:56 | 35.33649 | -109.49890 | 21253 ft | 271 kts | 73° |
| 2026-05-07 18:57 | 35.34098 | -109.47646 | 21253 ft | 271 kts | 73° |
| 2026-05-07 18:57 | 35.34548 | -109.45399 | 21254 ft | 272 kts | 73° |
| 2026-05-07 18:57 | 35.34998 | -109.43152 | 21255 ft | 272 kts | 73° |
| 2026-05-07 18:57 | 35.35451 | -109.40905 | 21255 ft | 272 kts | 74° |
| 2026-05-07 18:58 | 35.35906 | -109.38658 | 21255 ft | 272 kts | 74° |
| 2026-05-07 18:58 | 35.36362 | -109.36407 | 21255 ft | 272 kts | 73° |
| 2026-05-07 18:58 | 35.36819 | -109.34156 | 21256 ft | 272 kts | 73° |
| 2026-05-07 18:58 | 35.37275 | -109.31903 | 21256 ft | 273 kts | 73° |
| 2026-05-07 18:59 | 35.37733 | -109.29649 | 21256 ft | 273 kts | 73° |
| 2026-05-07 18:59 | 35.38191 | -109.27392 | 21256 ft | 273 kts | 73° |
| 2026-05-07 18:59 | 35.38649 | -109.25137 | 21257 ft | 273 kts | 73° |
| 2026-05-07 18:59 | 35.39108 | -109.22877 | 21252 ft | 273 kts | 73° |
| 2026-05-07 19:00 | 35.39567 | -109.20615 | 21240 ft | 274 kts | 73° |
| 2026-05-07 19:00 | 35.40030 | -109.18348 | 21234 ft | 274 kts | 74° |
| 2026-05-07 19:00 | 35.40496 | -109.16080 | 21232 ft | 274 kts | 74° |
| 2026-05-07 19:00 | 35.40962 | -109.13811 | 21231 ft | 275 kts | 73° |
| 2026-05-07 19:01 | 35.41430 | -109.11541 | 21231 ft | 275 kts | 73° |
| 2026-05-07 19:01 | 35.41898 | -109.09270 | 21231 ft | 275 kts | 73° |
| 2026-05-07 19:01 | 35.42365 | -109.06999 | 21231 ft | 275 kts | 73° |
| 2026-05-07 19:01 | 35.42833 | -109.04726 | 21234 ft | 275 kts | 73° |
| 2026-05-07 19:02 | 35.43300 | -109.02454 | 21238 ft | 275 kts | 73° |
| 2026-05-07 19:02 | 35.43767 | -109.00183 | 21240 ft | 275 kts | 73° |
| 2026-05-07 19:02 | 35.44234 | -108.97908 | 21241 ft | 275 kts | 73° |
| 2026-05-07 19:02 | 35.44703 | -108.95635 | 21242 ft | 275 kts | 74° |
| 2026-05-07 19:03 | 35.45174 | -108.93361 | 21243 ft | 275 kts | 73° |
| 2026-05-07 19:03 | 35.45643 | -108.91085 | 21245 ft | 275 kts | 73° |
| 2026-05-07 19:03 | 35.46110 | -108.88810 | 21245 ft | 275 kts | 74° |
| 2026-05-07 19:03 | 35.46498 | -108.86507 | 21246 ft | 276 kts | 78° |
| 2026-05-07 19:04 | 35.46744 | -108.84168 | 21248 ft | 277 kts | 82° |
| 2026-05-07 19:04 | 35.46914 | -108.81817 | 21249 ft | 277 kts | 83° |
| 2026-05-07 19:04 | 35.47083 | -108.79465 | 21249 ft | 277 kts | 83° |
| 2026-05-07 19:04 | 35.47249 | -108.77141 | 21249 ft | 277 kts | 83° |
| 2026-05-07 19:05 | 35.47418 | -108.74785 | 21249 ft | 277 kts | 83° |
| 2026-05-07 19:05 | 35.47591 | -108.72432 | 21249 ft | 277 kts | 83° |
| 2026-05-07 19:05 | 35.47764 | -108.70078 | 21249 ft | 277 kts | 83° |
| 2026-05-07 19:05 | 35.47939 | -108.67722 | 21249 ft | 277 kts | 83° |
| 2026-05-07 19:06 | 35.48113 | -108.65365 | 21249 ft | 278 kts | 83° |
| 2026-05-07 19:06 | 35.48464 | -108.60646 | 21249 ft | 278 kts | 83° |
| 2026-05-07 19:06 | 35.48639 | -108.58284 | 21249 ft | 278 kts | 83° |
| 2026-05-07 19:07 | 35.48814 | -108.55922 | 21250 ft | 278 kts | 83° |
| 2026-05-07 19:07 | 35.48991 | -108.53561 | 21252 ft | 278 kts | 83° |
| 2026-05-07 19:07 | 35.49168 | -108.51198 | 21250 ft | 278 kts | 83° |
| 2026-05-07 19:07 | 35.49344 | -108.48833 | 21249 ft | 278 kts | 83° |
| 2026-05-07 19:08 | 35.49520 | -108.46464 | 21249 ft | 279 kts | 83° |
| 2026-05-07 19:08 | 35.49695 | -108.44097 | 21249 ft | 279 kts | 83° |
| 2026-05-07 19:08 | 35.49871 | -108.41729 | 21249 ft | 279 kts | 83° |
| 2026-05-07 19:08 | 35.50044 | -108.39357 | 21249 ft | 279 kts | 83° |
| 2026-05-07 19:09 | 35.50215 | -108.36986 | 21249 ft | 279 kts | 83° |
| 2026-05-07 19:09 | 35.50384 | -108.34612 | 21250 ft | 279 kts | 83° |
| 2026-05-07 19:09 | 35.50554 | -108.32236 | 21250 ft | 279 kts | 83° |
| 2026-05-07 19:09 | 35.50723 | -108.29862 | 21249 ft | 280 kts | 83° |
| 2026-05-07 19:10 | 35.50886 | -108.27483 | 21249 ft | 280 kts | 83° |
| 2026-05-07 19:10 | 35.51027 | -108.25101 | 21249 ft | 280 kts | 83° |
| 2026-05-07 19:10 | 35.51165 | -108.22717 | 21249 ft | 280 kts | 84° |
| 2026-05-07 19:10 | 35.51301 | -108.20333 | 21251 ft | 280 kts | 84° |
| 2026-05-07 19:11 | 35.51438 | -108.17948 | 21251 ft | 280 kts | 84° |
| 2026-05-07 19:11 | 35.51574 | -108.15562 | 21252 ft | 280 kts | 84° |
| 2026-05-07 19:11 | 35.51710 | -108.13178 | 21252 ft | 280 kts | 84° |
| 2026-05-07 19:11 | 35.51846 | -108.10790 | 21252 ft | 280 kts | 84° |
| 2026-05-07 19:12 | 35.51982 | -108.08402 | 21252 ft | 280 kts | 84° |
| 2026-05-07 19:12 | 35.52118 | -108.06015 | 21252 ft | 281 kts | 84° |
| 2026-05-07 19:12 | 35.52208 | -108.04433 | 21252 ft | 281 kts | 84° |
| 2026-05-07 19:12 | 35.52344 | -108.02043 | 21252 ft | 281 kts | 84° |
| 2026-05-07 19:13 | 35.52480 | -107.99654 | 21252 ft | 281 kts | 84° |
| 2026-05-07 19:13 | 35.52616 | -107.97264 | 21252 ft | 281 kts | 84° |
| 2026-05-07 19:13 | 35.52752 | -107.94870 | 21253 ft | 281 kts | 84° |
| 2026-05-07 19:13 | 35.52889 | -107.92478 | 21253 ft | 281 kts | 84° |
| 2026-05-07 19:14 | 35.53025 | -107.90085 | 21253 ft | 281 kts | 84° |
| 2026-05-07 19:14 | 35.53162 | -107.87690 | 21252 ft | 281 kts | 84° |
| 2026-05-07 19:14 | 35.53299 | -107.85292 | 21251 ft | 281 kts | 84° |
| 2026-05-07 19:14 | 35.53436 | -107.82896 | 21250 ft | 282 kts | 84° |
| 2026-05-07 19:15 | 35.53573 | -107.80497 | 21249 ft | 282 kts | 84° |
| 2026-05-07 19:15 | 35.53710 | -107.78097 | 21249 ft | 282 kts | 84° |
| 2026-05-07 19:15 | 35.53847 | -107.75695 | 21248 ft | 282 kts | 84° |
| 2026-05-07 19:15 | 35.53985 | -107.73294 | 21247 ft | 282 kts | 84° |
| 2026-05-07 19:16 | 35.54122 | -107.70891 | 21247 ft | 282 kts | 84° |
| 2026-05-07 19:16 | 35.54260 | -107.68485 | 21246 ft | 283 kts | 84° |
| 2026-05-07 19:16 | 35.54399 | -107.66071 | 21246 ft | 285 kts | 84° |
| 2026-05-07 19:16 | 35.54538 | -107.63648 | 21245 ft | 283 kts | 84° |
| 2026-05-07 19:17 | 35.54676 | -107.61238 | 21244 ft | 283 kts | 84° |
| 2026-05-07 19:17 | 35.54814 | -107.58832 | 21338 ft | 280 kts | 84° |
| 2026-05-07 19:17 | 35.54947 | -107.56470 | 21513 ft | 274 kts | 84° |
| 2026-05-07 19:17 | 35.55077 | -107.54157 | 21693 ft | 269 kts | 84° |
| 2026-05-07 19:18 | 35.55204 | -107.51880 | 21845 ft | 266 kts | 84° |
| 2026-05-07 19:18 | 35.55331 | -107.49627 | 21979 ft | 263 kts | 84° |
| 2026-05-07 19:18 | 35.55460 | -107.47390 | 22100 ft | 262 kts | 84° |
| 2026-05-07 19:18 | 35.55589 | -107.45176 | 22268 ft | 258 kts | 84° |
| 2026-05-07 19:19 | 35.55716 | -107.42986 | 22432 ft | 256 kts | 84° |
| 2026-05-07 19:19 | 35.55842 | -107.40810 | 22576 ft | 255 kts | 84° |
| 2026-05-07 19:19 | 35.55968 | -107.38644 | 22717 ft | 254 kts | 84° |
| 2026-05-07 19:19 | 35.56094 | -107.36491 | 22889 ft | 252 kts | 84° |
| 2026-05-07 19:20 | 35.56219 | -107.34355 | 23047 ft | 250 kts | 84° |
| 2026-05-07 19:20 | 35.56343 | -107.32228 | 23190 ft | 250 kts | 83° |
| 2026-05-07 19:20 | 35.56462 | -107.30127 | 23322 ft | 250 kts | 84° |
| 2026-05-07 19:20 | 35.56583 | -107.27999 | 23450 ft | 250 kts | 84° |
| 2026-05-07 19:21 | 35.56704 | -107.25870 | 23575 ft | 250 kts | 84° |
| 2026-05-07 19:21 | 35.56826 | -107.23739 | 23699 ft | 251 kts | 84° |
| 2026-05-07 19:21 | 35.56949 | -107.21603 | 23824 ft | 251 kts | 84° |
| 2026-05-07 19:21 | 35.57074 | -107.19460 | 23949 ft | 252 kts | 84° |
| 2026-05-07 19:22 | 35.57199 | -107.17319 | 24098 ft | 251 kts | 84° |
| 2026-05-07 19:22 | 35.57325 | -107.15183 | 24249 ft | 250 kts | 84° |
| 2026-05-07 19:22 | 35.57452 | -107.13052 | 24391 ft | 250 kts | 84° |
| 2026-05-07 19:22 | 35.57580 | -107.10922 | 24527 ft | 250 kts | 84° |
| 2026-05-07 19:23 | 35.57709 | -107.08788 | 24659 ft | 251 kts | 84° |
| 2026-05-07 19:23 | 35.57840 | -107.06654 | 24788 ft | 251 kts | 84° |
| 2026-05-07 19:23 | 35.57973 | -107.04516 | 24916 ft | 251 kts | 84° |
| 2026-05-07 19:23 | 35.58107 | -107.02374 | 25043 ft | 252 kts | 84° |
| 2026-05-07 19:24 | 35.58243 | -107.00231 | 25170 ft | 252 kts | 84° |
| 2026-05-07 19:24 | 35.58380 | -106.98082 | 25296 ft | 252 kts | 84° |
| 2026-05-07 19:24 | 35.58519 | -106.95928 | 25396 ft | 254 kts | 84° |
| 2026-05-07 19:24 | 35.58663 | -106.93740 | 25374 ft | 261 kts | 83° |
| 2026-05-07 19:25 | 35.58811 | -106.91492 | 25302 ft | 267 kts | 83° |
| 2026-05-07 19:25 | 35.58961 | -106.89201 | 25264 ft | 271 kts | 84° |
| 2026-05-07 19:25 | 35.59115 | -106.86886 | 25252 ft | 273 kts | 84° |
| 2026-05-07 19:25 | 35.59272 | -106.84552 | 25233 ft | 275 kts | 84° |
| 2026-05-07 19:26 | 35.59429 | -106.82204 | 25222 ft | 276 kts | 84° |
| 2026-05-07 19:26 | 35.59586 | -106.79858 | 25222 ft | 275 kts | 84° |
| 2026-05-07 19:26 | 35.59743 | -106.77508 | 25220 ft | 277 kts | 84° |
| 2026-05-07 19:26 | 35.59902 | -106.75142 | 25218 ft | 279 kts | 84° |
| 2026-05-07 19:27 | 35.60063 | -106.72757 | 25217 ft | 281 kts | 84° |
| 2026-05-07 19:27 | 35.60227 | -106.70358 | 25217 ft | 283 kts | 84° |
| 2026-05-07 19:27 | 35.60391 | -106.67942 | 25217 ft | 285 kts | 84° |
| 2026-05-07 19:27 | 35.60557 | -106.65511 | 25217 ft | 286 kts | 83° |
| 2026-05-07 19:28 | 35.60722 | -106.63068 | 25217 ft | 288 kts | 84° |
| 2026-05-07 19:28 | 35.60889 | -106.60604 | 25218 ft | 290 kts | 84° |
| 2026-05-07 19:28 | 35.61055 | -106.58160 | 25219 ft | 292 kts | 84° |
| 2026-05-07 19:28 | 35.61224 | -106.55671 | 25220 ft | 293 kts | 84° |
| 2026-05-07 19:29 | 35.61394 | -106.53173 | 25220 ft | 294 kts | 84° |
| 2026-05-07 19:29 | 35.61564 | -106.50666 | 25220 ft | 295 kts | 84° |
| 2026-05-07 19:29 | 35.61708 | -106.48142 | 25219 ft | 297 kts | 85° |
| 2026-05-07 19:29 | 35.61794 | -106.45605 | 25219 ft | 298 kts | 86° |
| 2026-05-07 19:30 | 35.61890 | -106.43056 | 25213 ft | 299 kts | 86° |
| 2026-05-07 19:30 | 35.61991 | -106.40500 | 25210 ft | 300 kts | 86° |
| 2026-05-07 19:30 | 35.62093 | -106.37932 | 25209 ft | 301 kts | 86° |
| 2026-05-07 19:30 | 35.62197 | -106.35359 | 25208 ft | 302 kts | 85° |
| 2026-05-07 19:31 | 35.62301 | -106.32776 | 25207 ft | 303 kts | 85° |
| 2026-05-07 19:31 | 35.62406 | -106.30185 | 25206 ft | 304 kts | 85° |
| 2026-05-07 19:31 | 35.62512 | -106.27587 | 25206 ft | 305 kts | 85° |
| 2026-05-07 19:31 | 35.62618 | -106.24981 | 25204 ft | 306 kts | 85° |
| 2026-05-07 19:32 | 35.62724 | -106.22370 | 25203 ft | 306 kts | 85° |
| 2026-05-07 19:32 | 35.62831 | -106.19755 | 25202 ft | 307 kts | 85° |
| 2026-05-07 19:32 | 35.62938 | -106.17148 | 25201 ft | 308 kts | 85° |
| 2026-05-07 19:32 | 35.63045 | -106.14506 | 25200 ft | 308 kts | 85° |
| 2026-05-07 19:33 | 35.63152 | -106.11875 | 25200 ft | 309 kts | 85° |
| 2026-05-07 19:33 | 35.63259 | -106.09237 | 25199 ft | 309 kts | 85° |
| 2026-05-07 19:33 | 35.63366 | -106.06598 | 25199 ft | 309 kts | 85° |
| 2026-05-07 19:33 | 35.63473 | -106.03957 | 25199 ft | 310 kts | 85° |
| 2026-05-07 19:34 | 35.63579 | -106.01310 | 25200 ft | 310 kts | 85° |
| 2026-05-07 19:34 | 35.63685 | -105.98662 | 25200 ft | 311 kts | 85° |
| 2026-05-07 19:34 | 35.63791 | -105.96009 | 25201 ft | 311 kts | 85° |
| 2026-05-07 19:34 | 35.63898 | -105.93353 | 25202 ft | 311 kts | 85° |
| 2026-05-07 19:35 | 35.64005 | -105.90693 | 25203 ft | 312 kts | 85° |
| 2026-05-07 19:35 | 35.64112 | -105.88031 | 25204 ft | 312 kts | 85° |
| 2026-05-07 19:35 | 35.64220 | -105.85369 | 25204 ft | 312 kts | 85° |
| 2026-05-07 19:35 | 35.64328 | -105.82700 | 25205 ft | 313 kts | 85° |
| 2026-05-07 19:36 | 35.64436 | -105.80030 | 25206 ft | 313 kts | 85° |
| 2026-05-07 19:36 | 35.64546 | -105.77359 | 25206 ft | 313 kts | 85° |
| 2026-05-07 19:36 | 35.64656 | -105.74687 | 25207 ft | 313 kts | 85° |
| 2026-05-07 19:36 | 35.64767 | -105.72012 | 25207 ft | 313 kts | 86° |
| 2026-05-07 19:37 | 35.64878 | -105.69344 | 25207 ft | 313 kts | 86° |
| 2026-05-07 19:37 | 35.64990 | -105.66674 | 25207 ft | 313 kts | 86° |
| 2026-05-07 19:37 | 35.65102 | -105.64004 | 25205 ft | 312 kts | 85° |
| 2026-05-07 19:37 | 35.65212 | -105.61372 | 25205 ft | 313 kts | 85° |
| 2026-05-07 19:38 | 35.65324 | -105.58707 | 25207 ft | 312 kts | 85° |
| 2026-05-07 19:38 | 35.65437 | -105.56038 | 25208 ft | 312 kts | 86° |
| 2026-05-07 19:38 | 35.65551 | -105.53371 | 25208 ft | 312 kts | 86° |
| 2026-05-07 19:38 | 35.65665 | -105.50706 | 25208 ft | 312 kts | 86° |
| 2026-05-07 19:39 | 35.65779 | -105.48040 | 25207 ft | 312 kts | 86° |
| 2026-05-07 19:39 | 35.65895 | -105.45375 | 25207 ft | 312 kts | 86° |
| 2026-05-07 19:39 | 35.66012 | -105.42707 | 25206 ft | 312 kts | 86° |
| 2026-05-07 19:39 | 35.66131 | -105.40040 | 25205 ft | 312 kts | 86° |
| 2026-05-07 19:40 | 35.66251 | -105.37376 | 25205 ft | 312 kts | 86° |
| 2026-05-07 19:40 | 35.66373 | -105.34712 | 25205 ft | 312 kts | 86° |
| 2026-05-07 19:40 | 35.66495 | -105.32049 | 25204 ft | 312 kts | 86° |
| 2026-05-07 19:40 | 35.66618 | -105.29386 | 25204 ft | 312 kts | 86° |
| 2026-05-07 19:41 | 35.66744 | -105.26724 | 25202 ft | 312 kts | 86° |
| 2026-05-07 19:41 | 35.66871 | -105.24064 | 25201 ft | 312 kts | 86° |
| 2026-05-07 19:41 | 35.67000 | -105.21400 | 25200 ft | 312 kts | 86° |
| 2026-05-07 19:41 | 35.67131 | -105.18737 | 25200 ft | 312 kts | 86° |
| 2026-05-07 19:42 | 35.67263 | -105.16075 | 25199 ft | 312 kts | 86° |
| 2026-05-07 19:42 | 35.67412 | -105.13413 | 25198 ft | 312 kts | 83° |
| 2026-05-07 19:42 | 35.67949 | -105.10847 | 25198 ft | 310 kts | 66° |
| 2026-05-07 19:42 | 35.68975 | -105.08535 | 25200 ft | 308 kts | 56° |
| 2026-05-07 19:43 | 35.70097 | -105.06292 | 25201 ft | 308 kts | 56° |
| 2026-05-07 19:43 | 35.71209 | -105.04042 | 25200 ft | 308 kts | 56° |
| 2026-05-07 19:43 | 35.72321 | -105.01784 | 25200 ft | 308 kts | 57° |
| 2026-05-07 19:43 | 35.73432 | -104.99525 | 25200 ft | 309 kts | 57° |
| 2026-05-07 19:44 | 35.74542 | -104.97262 | 25200 ft | 309 kts | 57° |
| 2026-05-07 19:44 | 35.75655 | -104.94997 | 25200 ft | 309 kts | 57° |
| 2026-05-07 19:44 | 35.76768 | -104.92729 | 25201 ft | 310 kts | 57° |
| 2026-05-07 19:44 | 35.77880 | -104.90461 | 25201 ft | 310 kts | 57° |
| 2026-05-07 19:45 | 35.78994 | -104.88187 | 25201 ft | 310 kts | 57° |
| 2026-05-07 19:45 | 35.80108 | -104.85913 | 25202 ft | 310 kts | 57° |
| 2026-05-07 19:45 | 35.81225 | -104.83637 | 25202 ft | 311 kts | 57° |
| 2026-05-07 19:45 | 35.82327 | -104.81389 | 25202 ft | 311 kts | 57° |
| 2026-05-07 19:46 | 35.83443 | -104.79108 | 25202 ft | 311 kts | 57° |
| 2026-05-07 19:46 | 35.84562 | -104.76824 | 25202 ft | 311 kts | 57° |
| 2026-05-07 19:46 | 35.85682 | -104.74537 | 25202 ft | 312 kts | 57° |
| 2026-05-07 19:46 | 35.86850 | -104.72290 | 25202 ft | 311 kts | 53° |
| 2026-05-07 19:47 | 35.88044 | -104.70069 | 25203 ft | 311 kts | 54° |
| 2026-05-07 19:47 | 35.89256 | -104.67854 | 25202 ft | 311 kts | 54° |
| 2026-05-07 19:47 | 35.90465 | -104.65640 | 25202 ft | 311 kts | 53° |
| 2026-05-07 19:47 | 35.91674 | -104.63424 | 25201 ft | 311 kts | 53° |
| 2026-05-07 19:48 | 35.92882 | -104.61207 | 25201 ft | 312 kts | 54° |
| 2026-05-07 19:48 | 35.94091 | -104.58986 | 25201 ft | 312 kts | 54° |
| 2026-05-07 19:48 | 35.95299 | -104.56767 | 25200 ft | 312 kts | 53° |
| 2026-05-07 19:48 | 35.96508 | -104.54544 | 25200 ft | 312 kts | 53° |
| 2026-05-07 19:49 | 35.97716 | -104.52321 | 25199 ft | 312 kts | 54° |
| 2026-05-07 19:49 | 35.98924 | -104.50097 | 25198 ft | 312 kts | 54° |
| 2026-05-07 19:49 | 36.00132 | -104.47873 | 25189 ft | 312 kts | 54° |
| 2026-05-07 19:49 | 36.01340 | -104.45638 | 25176 ft | 313 kts | 53° |
| 2026-05-07 19:50 | 36.02545 | -104.43397 | 25170 ft | 313 kts | 53° |
| 2026-05-07 19:50 | 36.03749 | -104.41154 | 25168 ft | 313 kts | 54° |
| 2026-05-07 19:50 | 36.04955 | -104.38913 | 25167 ft | 313 kts | 54° |
| 2026-05-07 19:50 | 36.06162 | -104.36669 | 25166 ft | 313 kts | 54° |
| 2026-05-07 19:51 | 36.07368 | -104.34428 | 25165 ft | 313 kts | 54° |
| 2026-05-07 19:51 | 36.08578 | -104.32183 | 25164 ft | 313 kts | 54° |
| 2026-05-07 19:51 | 36.09786 | -104.29942 | 25162 ft | 313 kts | 54° |
| 2026-05-07 19:51 | 36.10995 | -104.27699 | 25160 ft | 313 kts | 54° |
| 2026-05-07 19:52 | 36.12203 | -104.25455 | 25159 ft | 313 kts | 54° |
| 2026-05-07 19:52 | 36.13412 | -104.23211 | 25158 ft | 314 kts | 54° |
| 2026-05-07 19:52 | 36.14623 | -104.20965 | 25158 ft | 314 kts | 54° |
| 2026-05-07 19:52 | 36.15834 | -104.18717 | 25157 ft | 314 kts | 54° |
| 2026-05-07 19:53 | 36.17045 | -104.16469 | 25156 ft | 314 kts | 54° |
| 2026-05-07 19:53 | 36.18258 | -104.14217 | 25156 ft | 314 kts | 54° |
| 2026-05-07 19:53 | 36.19472 | -104.11965 | 25155 ft | 314 kts | 54° |
| 2026-05-07 19:53 | 36.20685 | -104.09713 | 25154 ft | 315 kts | 54° |
| 2026-05-07 19:54 | 36.21884 | -104.07489 | 25154 ft | 315 kts | 53° |
| 2026-05-07 19:54 | 36.23123 | -104.05205 | 25153 ft | 315 kts | 53° |
| 2026-05-07 19:54 | 36.24341 | -104.02951 | 25152 ft | 315 kts | 53° |
| 2026-05-07 19:54 | 36.25558 | -104.00695 | 25152 ft | 315 kts | 53° |
| 2026-05-07 19:55 | 36.26767 | -103.98434 | 25150 ft | 315 kts | 53° |
| 2026-05-07 19:55 | 36.27937 | -103.96173 | 25149 ft | 316 kts | 53° |
| 2026-05-07 19:55 | 36.29110 | -103.93872 | 25149 ft | 316 kts | 53° |
| 2026-05-07 19:55 | 36.30279 | -103.91563 | 25149 ft | 316 kts | 53° |
| 2026-05-07 19:56 | 36.31447 | -103.89249 | 25148 ft | 317 kts | 53° |
| 2026-05-07 19:56 | 36.32615 | -103.86932 | 25148 ft | 317 kts | 53° |
| 2026-05-07 19:56 | 36.33784 | -103.84611 | 25147 ft | 317 kts | 54° |
| 2026-05-07 19:56 | 36.34954 | -103.82289 | 25146 ft | 318 kts | 54° |
| 2026-05-07 19:57 | 36.36124 | -103.79964 | 25145 ft | 318 kts | 54° |
| 2026-05-07 19:57 | 36.37296 | -103.77637 | 25144 ft | 318 kts | 54° |
| 2026-05-07 19:57 | 36.38468 | -103.75309 | 25143 ft | 318 kts | 54° |
| 2026-05-07 19:57 | 36.39641 | -103.72977 | 25143 ft | 319 kts | 54° |
| 2026-05-07 19:58 | 36.40816 | -103.70644 | 25142 ft | 319 kts | 54° |
| 2026-05-07 19:58 | 36.41992 | -103.68311 | 25140 ft | 319 kts | 54° |
| 2026-05-07 19:58 | 36.43169 | -103.65977 | 25140 ft | 319 kts | 54° |
| 2026-05-07 19:58 | 36.44348 | -103.63641 | 25141 ft | 319 kts | 54° |
| 2026-05-07 19:59 | 36.45528 | -103.61305 | 25141 ft | 319 kts | 54° |
| 2026-05-07 19:59 | 36.46709 | -103.58965 | 25137 ft | 320 kts | 54° |
| 2026-05-07 19:59 | 36.47891 | -103.56624 | 25132 ft | 320 kts | 54° |
| 2026-05-07 19:59 | 36.49075 | -103.54279 | 25124 ft | 321 kts | 54° |
| 2026-05-07 20:00 | 36.50263 | -103.51932 | 25109 ft | 321 kts | 54° |
| 2026-05-07 20:00 | 36.51454 | -103.49583 | 25102 ft | 321 kts | 54° |
| 2026-05-07 20:00 | 36.52645 | -103.47233 | 25099 ft | 321 kts | 54° |
| 2026-05-07 20:00 | 36.53838 | -103.44881 | 25099 ft | 321 kts | 54° |
| 2026-05-07 20:01 | 36.54627 | -103.43325 | 25098 ft | 321 kts | 54° |
| 2026-05-07 20:01 | 36.55820 | -103.40973 | 25098 ft | 321 kts | 54° |
| 2026-05-07 20:01 | 36.57014 | -103.38621 | 25098 ft | 321 kts | 54° |
| 2026-05-07 20:01 | 36.58209 | -103.36270 | 25098 ft | 321 kts | 54° |
| 2026-05-07 20:02 | 36.59404 | -103.33920 | 25098 ft | 321 kts | 54° |
| 2026-05-07 20:02 | 36.60599 | -103.31568 | 25098 ft | 321 kts | 54° |
| 2026-05-07 20:02 | 36.61794 | -103.29216 | 25098 ft | 322 kts | 54° |
| 2026-05-07 20:02 | 36.62989 | -103.26865 | 25097 ft | 322 kts | 54° |
| 2026-05-07 20:03 | 36.64185 | -103.24512 | 25097 ft | 322 kts | 54° |
| 2026-05-07 20:03 | 36.65380 | -103.22159 | 25097 ft | 322 kts | 54° |
| 2026-05-07 20:03 | 36.66576 | -103.19805 | 25096 ft | 322 kts | 54° |
| 2026-05-07 20:03 | 36.67771 | -103.17451 | 25096 ft | 322 kts | 54° |
| 2026-05-07 20:04 | 36.68967 | -103.15097 | 25096 ft | 322 kts | 54° |
| 2026-05-07 20:04 | 36.70164 | -103.12741 | 25095 ft | 322 kts | 54° |
| 2026-05-07 20:04 | 36.71363 | -103.10386 | 25095 ft | 322 kts | 54° |
| 2026-05-07 20:04 | 36.72561 | -103.08032 | 25094 ft | 322 kts | 54° |
| 2026-05-07 20:05 | 36.73759 | -103.05678 | 25093 ft | 322 kts | 54° |
| 2026-05-07 20:05 | 36.74960 | -103.03320 | 25092 ft | 322 kts | 54° |
| 2026-05-07 20:05 | 36.76159 | -103.00965 | 25090 ft | 322 kts | 54° |
| 2026-05-07 20:05 | 36.77359 | -102.98606 | 25088 ft | 322 kts | 54° |
| 2026-05-07 20:06 | 36.78560 | -102.96246 | 25086 ft | 322 kts | 54° |
| 2026-05-07 20:06 | 36.79760 | -102.93887 | 25084 ft | 322 kts | 54° |
| 2026-05-07 20:06 | 36.80961 | -102.91527 | 25082 ft | 322 kts | 54° |
| 2026-05-07 20:06 | 36.82163 | -102.89164 | 25081 ft | 322 kts | 54° |
| 2026-05-07 20:07 | 36.83365 | -102.86801 | 25079 ft | 322 kts | 54° |
| 2026-05-07 20:07 | 36.84567 | -102.84438 | 25077 ft | 322 kts | 54° |
| 2026-05-07 20:07 | 36.85769 | -102.82075 | 25076 ft | 322 kts | 54° |
| 2026-05-07 20:07 | 36.86970 | -102.79712 | 25074 ft | 323 kts | 53° |
| 2026-05-07 20:08 | 36.88171 | -102.77341 | 25072 ft | 323 kts | 53° |
| 2026-05-07 20:08 | 36.89371 | -102.74974 | 25070 ft | 323 kts | 53° |
| 2026-05-07 20:08 | 36.90571 | -102.72604 | 25069 ft | 323 kts | 53° |
| 2026-05-07 20:08 | 36.91772 | -102.70231 | 25067 ft | 323 kts | 54° |
| 2026-05-07 20:09 | 36.92955 | -102.67892 | 25066 ft | 323 kts | 54° |
| 2026-05-07 20:09 | 36.94158 | -102.65518 | 25057 ft | 323 kts | 53° |
| 2026-05-07 20:09 | 36.95361 | -102.63144 | 25057 ft | 323 kts | 53° |
| 2026-05-07 20:10 | 36.97766 | -102.58393 | 25061 ft | 323 kts | 54° |
| 2026-05-07 20:10 | 36.98968 | -102.56015 | 25062 ft | 323 kts | 54° |
| 2026-05-07 20:10 | 37.00169 | -102.53640 | 25060 ft | 323 kts | 54° |
| 2026-05-07 20:10 | 37.01370 | -102.51263 | 25058 ft | 323 kts | 54° |
| 2026-05-07 20:11 | 37.02572 | -102.48885 | 25057 ft | 323 kts | 54° |
| 2026-05-07 20:11 | 37.03773 | -102.46508 | 25056 ft | 323 kts | 54° |
| 2026-05-07 20:11 | 37.04974 | -102.44128 | 25056 ft | 323 kts | 53° |
| 2026-05-07 20:11 | 37.06175 | -102.41744 | 25056 ft | 323 kts | 53° |
| 2026-05-07 20:12 | 37.07374 | -102.39362 | 25056 ft | 323 kts | 53° |
| 2026-05-07 20:12 | 37.08573 | -102.36978 | 25056 ft | 324 kts | 54° |
| 2026-05-07 20:12 | 37.09772 | -102.34593 | 25056 ft | 324 kts | 54° |
| 2026-05-07 20:12 | 37.10970 | -102.32210 | 25057 ft | 324 kts | 54° |
| 2026-05-07 20:13 | 37.12170 | -102.29822 | 25057 ft | 324 kts | 54° |
| 2026-05-07 20:13 | 37.13369 | -102.27436 | 25057 ft | 324 kts | 54° |
| 2026-05-07 20:13 | 37.14568 | -102.25050 | 25058 ft | 324 kts | 54° |
| 2026-05-07 20:13 | 37.15769 | -102.22661 | 25058 ft | 324 kts | 54° |
| 2026-05-07 20:14 | 37.16966 | -102.20274 | 25059 ft | 324 kts | 53° |
| 2026-05-07 20:14 | 37.18163 | -102.17884 | 25059 ft | 324 kts | 53° |
| 2026-05-07 20:14 | 37.19359 | -102.15492 | 25059 ft | 324 kts | 54° |
| 2026-05-07 20:14 | 37.20557 | -102.13096 | 25054 ft | 324 kts | 54° |
| 2026-05-07 20:15 | 37.21754 | -102.10702 | 25057 ft | 324 kts | 54° |
| 2026-05-07 20:15 | 37.22953 | -102.08303 | 25058 ft | 324 kts | 54° |
| 2026-05-07 20:15 | 37.24151 | -102.05904 | 25059 ft | 325 kts | 53° |
| 2026-05-07 20:15 | 37.25349 | -102.03500 | 25059 ft | 325 kts | 53° |
| 2026-05-07 20:16 | 37.26548 | -102.01095 | 25058 ft | 325 kts | 53° |
| 2026-05-07 20:16 | 37.27746 | -101.98685 | 25057 ft | 326 kts | 53° |
| 2026-05-07 20:16 | 37.28937 | -101.96264 | 25056 ft | 326 kts | 53° |
| 2026-05-07 20:16 | 37.30125 | -101.93838 | 25054 ft | 326 kts | 53° |
| 2026-05-07 20:17 | 37.31312 | -101.91409 | 25051 ft | 326 kts | 53° |
| 2026-05-07 20:17 | 37.32530 | -101.89006 | 25050 ft | 326 kts | 52° |
| 2026-05-07 20:17 | 37.33750 | -101.86602 | 25045 ft | 326 kts | 52° |
| 2026-05-07 20:17 | 37.34966 | -101.84197 | 25042 ft | 326 kts | 53° |
| 2026-05-07 20:18 | 37.36184 | -101.81787 | 25040 ft | 327 kts | 53° |
| 2026-05-07 20:18 | 37.37402 | -101.79376 | 25038 ft | 327 kts | 53° |
| 2026-05-07 20:18 | 37.38605 | -101.76993 | 25036 ft | 327 kts | 53° |
| 2026-05-07 20:18 | 37.39822 | -101.74581 | 25034 ft | 327 kts | 53° |
| 2026-05-07 20:19 | 37.41041 | -101.72166 | 25031 ft | 327 kts | 53° |
| 2026-05-07 20:19 | 37.42260 | -101.69749 | 25029 ft | 327 kts | 53° |
| 2026-05-07 20:19 | 37.43478 | -101.67334 | 25027 ft | 327 kts | 53° |
| 2026-05-07 20:19 | 37.44697 | -101.64917 | 25025 ft | 327 kts | 53° |
| 2026-05-07 20:20 | 37.45917 | -101.62497 | 25023 ft | 327 kts | 53° |
| 2026-05-07 20:20 | 37.47136 | -101.60081 | 25021 ft | 327 kts | 53° |
| 2026-05-07 20:20 | 37.48356 | -101.57661 | 25020 ft | 327 kts | 53° |
| 2026-05-07 20:20 | 37.49577 | -101.55239 | 25018 ft | 327 kts | 53° |
| 2026-05-07 20:21 | 37.50797 | -101.52819 | 25017 ft | 327 kts | 53° |
| 2026-05-07 20:21 | 37.52017 | -101.50398 | 25015 ft | 327 kts | 53° |
| 2026-05-07 20:21 | 37.53237 | -101.47976 | 25013 ft | 327 kts | 53° |
| 2026-05-07 20:21 | 37.54457 | -101.45553 | 25012 ft | 327 kts | 53° |
| 2026-05-07 20:22 | 37.55679 | -101.43129 | 25011 ft | 327 kts | 53° |
| 2026-05-07 20:22 | 37.56899 | -101.40706 | 25010 ft | 328 kts | 53° |
| 2026-05-07 20:22 | 37.58120 | -101.38281 | 25009 ft | 327 kts | 53° |
| 2026-05-07 20:22 | 37.59339 | -101.35859 | 25009 ft | 327 kts | 53° |
| 2026-05-07 20:23 | 37.60560 | -101.33434 | 25009 ft | 327 kts | 53° |
| 2026-05-07 20:23 | 37.61781 | -101.31008 | 25009 ft | 327 kts | 53° |
| 2026-05-07 20:23 | 37.63000 | -101.28584 | 25009 ft | 327 kts | 53° |
| 2026-05-07 20:23 | 37.64220 | -101.26159 | 25009 ft | 327 kts | 52° |
| 2026-05-07 20:24 | 37.65439 | -101.23729 | 25009 ft | 327 kts | 53° |
| 2026-05-07 20:24 | 37.66655 | -101.21301 | 25009 ft | 327 kts | 53° |
| 2026-05-07 20:24 | 37.67872 | -101.18870 | 25009 ft | 328 kts | 53° |
| 2026-05-07 20:24 | 37.69090 | -101.16439 | 25009 ft | 328 kts | 53° |
| 2026-05-07 20:25 | 37.70307 | -101.14007 | 25009 ft | 328 kts | 53° |
| 2026-05-07 20:25 | 37.71524 | -101.11575 | 25009 ft | 328 kts | 53° |
| 2026-05-07 20:25 | 37.72741 | -101.09143 | 25009 ft | 328 kts | 53° |
| 2026-05-07 20:25 | 37.73958 | -101.06709 | 25008 ft | 328 kts | 53° |
| 2026-05-07 20:26 | 37.75159 | -101.04305 | 25008 ft | 328 kts | 53° |
| 2026-05-07 20:26 | 37.76373 | -101.01869 | 25007 ft | 328 kts | 53° |
| 2026-05-07 20:26 | 37.77589 | -100.99428 | 25005 ft | 328 kts | 53° |
| 2026-05-07 20:26 | 37.78804 | -100.96988 | 25004 ft | 328 kts | 53° |
| 2026-05-07 20:27 | 37.80020 | -100.94545 | 25002 ft | 328 kts | 53° |
| 2026-05-07 20:27 | 37.81236 | -100.92103 | 25001 ft | 328 kts | 53° |
| 2026-05-07 20:27 | 37.82452 | -100.89659 | 25000 ft | 328 kts | 53° |
| 2026-05-07 20:27 | 37.83667 | -100.87211 | 25000 ft | 329 kts | 53° |
| 2026-05-07 20:28 | 37.84881 | -100.84763 | 24999 ft | 329 kts | 53° |
| 2026-05-07 20:28 | 37.86095 | -100.82312 | 24999 ft | 329 kts | 53° |
| 2026-05-07 20:28 | 37.87309 | -100.79861 | 24999 ft | 329 kts | 53° |
| 2026-05-07 20:28 | 37.88524 | -100.77407 | 24999 ft | 329 kts | 53° |
| 2026-05-07 20:29 | 37.89738 | -100.74954 | 24999 ft | 329 kts | 53° |
| 2026-05-07 20:29 | 37.90952 | -100.72499 | 24999 ft | 329 kts | 52° |
| 2026-05-07 20:29 | 37.92165 | -100.70041 | 24999 ft | 329 kts | 53° |
| 2026-05-07 20:29 | 37.93377 | -100.67582 | 24999 ft | 329 kts | 53° |
| 2026-05-07 20:30 | 37.94488 | -100.65032 | 24997 ft | 332 kts | 58° |
| 2026-05-07 20:30 | 37.95430 | -100.62355 | 25000 ft | 333 kts | 62° |
| 2026-05-07 20:30 | 37.96364 | -100.59671 | 25000 ft | 333 kts | 62° |
| 2026-05-07 20:30 | 37.97302 | -100.56990 | 24998 ft | 333 kts | 62° |
| 2026-05-07 20:31 | 37.98239 | -100.54307 | 24998 ft | 333 kts | 62° |
| 2026-05-07 20:31 | 37.99178 | -100.51622 | 24997 ft | 333 kts | 62° |
| 2026-05-07 20:31 | 38.00117 | -100.48935 | 24996 ft | 333 kts | 62° |
| 2026-05-07 20:31 | 38.01053 | -100.46243 | 24996 ft | 334 kts | 62° |
| 2026-05-07 20:32 | 38.01985 | -100.43550 | 24995 ft | 334 kts | 62° |
| 2026-05-07 20:32 | 38.02919 | -100.40852 | 24995 ft | 334 kts | 62° |
| 2026-05-07 20:32 | 38.03852 | -100.38156 | 24994 ft | 334 kts | 62° |
| 2026-05-07 20:32 | 38.04786 | -100.35456 | 24994 ft | 334 kts | 62° |
| 2026-05-07 20:33 | 38.05719 | -100.32756 | 24994 ft | 334 kts | 62° |
| 2026-05-07 20:33 | 38.06641 | -100.30090 | 24993 ft | 334 kts | 62° |
| 2026-05-07 20:33 | 38.07576 | -100.27388 | 24993 ft | 335 kts | 62° |
| 2026-05-07 20:33 | 38.08512 | -100.24682 | 24993 ft | 335 kts | 62° |
| 2026-05-07 20:34 | 38.09447 | -100.21978 | 24992 ft | 335 kts | 62° |
| 2026-05-07 20:34 | 38.10383 | -100.19271 | 24992 ft | 335 kts | 62° |
| 2026-05-07 20:34 | 38.11319 | -100.16563 | 24992 ft | 335 kts | 62° |
| 2026-05-07 20:34 | 38.12255 | -100.13856 | 24991 ft | 335 kts | 62° |
| 2026-05-07 20:35 | 38.13191 | -100.11146 | 24991 ft | 335 kts | 62° |
| 2026-05-07 20:35 | 38.14128 | -100.08437 | 24991 ft | 335 kts | 62° |
| 2026-05-07 20:35 | 38.15065 | -100.05724 | 24990 ft | 335 kts | 62° |
| 2026-05-07 20:35 | 38.16002 | -100.03014 | 24990 ft | 335 kts | 62° |
| 2026-05-07 20:36 | 38.16939 | -100.00303 | 24989 ft | 335 kts | 62° |
| 2026-05-07 20:36 | 38.17866 | -99.97578 | 24989 ft | 336 kts | 60° |
| 2026-05-07 20:36 | 38.18763 | -99.94841 | 24988 ft | 336 kts | 61° |
| 2026-05-07 20:36 | 38.19650 | -99.92095 | 24985 ft | 336 kts | 62° |
| 2026-05-07 20:37 | 38.20531 | -99.89350 | 24984 ft | 335 kts | 62° |
| 2026-05-07 20:37 | 38.21410 | -99.86604 | 24982 ft | 335 kts | 62° |
| 2026-05-07 20:37 | 38.22286 | -99.83859 | 24976 ft | 335 kts | 62° |
| 2026-05-07 20:37 | 38.23162 | -99.81114 | 24972 ft | 335 kts | 62° |
| 2026-05-07 20:38 | 38.24037 | -99.78368 | 24970 ft | 335 kts | 62° |
| 2026-05-07 20:38 | 38.24911 | -99.75623 | 24967 ft | 335 kts | 62° |
| 2026-05-07 20:38 | 38.25784 | -99.72875 | 24963 ft | 335 kts | 62° |
| 2026-05-07 20:38 | 38.26655 | -99.70129 | 24961 ft | 335 kts | 62° |
| 2026-05-07 20:39 | 38.27524 | -99.67384 | 24959 ft | 335 kts | 62° |
| 2026-05-07 20:39 | 38.28393 | -99.64639 | 24958 ft | 334 kts | 62° |
| 2026-05-07 20:39 | 38.29261 | -99.61892 | 24956 ft | 334 kts | 62° |
| 2026-05-07 20:39 | 38.30129 | -99.59148 | 24955 ft | 334 kts | 62° |
| 2026-05-07 20:40 | 38.30999 | -99.56404 | 24954 ft | 334 kts | 62° |
| 2026-05-07 20:40 | 38.31869 | -99.53659 | 24953 ft | 334 kts | 62° |
| 2026-05-07 20:40 | 38.32740 | -99.50917 | 24952 ft | 334 kts | 62° |
| 2026-05-07 20:40 | 38.33611 | -99.48174 | 24951 ft | 334 kts | 62° |
| 2026-05-07 20:41 | 38.34481 | -99.45433 | 24950 ft | 334 kts | 62° |
| 2026-05-07 20:41 | 38.35351 | -99.42691 | 24950 ft | 334 kts | 62° |
| 2026-05-07 20:41 | 38.36222 | -99.39949 | 24949 ft | 334 kts | 62° |
| 2026-05-07 20:41 | 38.37080 | -99.37244 | 24949 ft | 334 kts | 62° |
| 2026-05-07 20:42 | 38.37951 | -99.34500 | 24948 ft | 334 kts | 62° |
| 2026-05-07 20:42 | 38.38821 | -99.31759 | 24948 ft | 334 kts | 62° |
| 2026-05-07 20:42 | 38.39691 | -99.29016 | 24947 ft | 334 kts | 62° |
| 2026-05-07 20:42 | 38.40561 | -99.26274 | 24947 ft | 334 kts | 62° |
| 2026-05-07 20:43 | 38.41430 | -99.23534 | 24946 ft | 334 kts | 62° |
| 2026-05-07 20:43 | 38.42303 | -99.20791 | 24944 ft | 334 kts | 62° |
| 2026-05-07 20:43 | 38.43176 | -99.18049 | 24944 ft | 334 kts | 62° |
| 2026-05-07 20:43 | 38.44049 | -99.15306 | 24943 ft | 334 kts | 62° |
| 2026-05-07 20:44 | 38.44917 | -99.12561 | 24943 ft | 334 kts | 62° |
| 2026-05-07 20:44 | 38.45785 | -99.09813 | 24942 ft | 334 kts | 62° |
| 2026-05-07 20:44 | 38.46651 | -99.07066 | 24944 ft | 334 kts | 62° |
| 2026-05-07 20:44 | 38.47517 | -99.04316 | 24947 ft | 334 kts | 62° |
| 2026-05-07 20:45 | 38.48382 | -99.01569 | 24949 ft | 334 kts | 62° |
| 2026-05-07 20:45 | 38.49247 | -98.98822 | 24949 ft | 334 kts | 62° |
| 2026-05-07 20:45 | 38.50112 | -98.96075 | 24950 ft | 334 kts | 62° |
| 2026-05-07 20:45 | 38.50978 | -98.93324 | 24950 ft | 334 kts | 62° |
| 2026-05-07 20:46 | 38.51843 | -98.90575 | 24949 ft | 334 kts | 62° |
| 2026-05-07 20:46 | 38.52708 | -98.87825 | 24949 ft | 334 kts | 62° |
| 2026-05-07 20:46 | 38.53574 | -98.85074 | 24948 ft | 334 kts | 62° |
| 2026-05-07 20:46 | 38.54440 | -98.82325 | 24948 ft | 334 kts | 62° |
| 2026-05-07 20:47 | 38.55310 | -98.79576 | 24948 ft | 334 kts | 62° |
| 2026-05-07 20:47 | 38.56183 | -98.76826 | 24948 ft | 334 kts | 62° |
| 2026-05-07 20:47 | 38.57057 | -98.74076 | 24947 ft | 334 kts | 62° |
| 2026-05-07 20:47 | 38.57930 | -98.71328 | 24946 ft | 334 kts | 62° |
| 2026-05-07 20:48 | 38.58805 | -98.68575 | 24945 ft | 334 kts | 62° |
| 2026-05-07 20:48 | 38.59681 | -98.65822 | 24944 ft | 334 kts | 62° |
| 2026-05-07 20:48 | 38.60557 | -98.63067 | 24943 ft | 334 kts | 62° |
| 2026-05-07 20:48 | 38.61433 | -98.60312 | 24943 ft | 334 kts | 62° |
| 2026-05-07 20:49 | 38.62308 | -98.57557 | 24943 ft | 335 kts | 62° |
| 2026-05-07 20:49 | 38.62886 | -98.55732 | 24943 ft | 335 kts | 62° |
| 2026-05-07 20:49 | 38.63760 | -98.52973 | 24943 ft | 335 kts | 62° |
| 2026-05-07 20:49 | 38.64633 | -98.50211 | 24944 ft | 335 kts | 62° |
| 2026-05-07 20:50 | 38.65506 | -98.47449 | 24944 ft | 335 kts | 62° |
| 2026-05-07 20:50 | 38.66379 | -98.44687 | 24945 ft | 335 kts | 62° |
| 2026-05-07 20:50 | 38.67254 | -98.41925 | 24945 ft | 335 kts | 62° |
| 2026-05-07 20:50 | 38.68131 | -98.39162 | 24946 ft | 335 kts | 62° |
| 2026-05-07 20:51 | 38.69008 | -98.36400 | 24946 ft | 335 kts | 62° |
| 2026-05-07 20:51 | 38.69886 | -98.33634 | 24947 ft | 335 kts | 62° |
| 2026-05-07 20:51 | 38.70765 | -98.30870 | 24948 ft | 335 kts | 62° |
| 2026-05-07 20:51 | 38.71643 | -98.28104 | 24948 ft | 335 kts | 62° |
| 2026-05-07 20:52 | 38.72517 | -98.25347 | 24949 ft | 335 kts | 62° |
| 2026-05-07 20:52 | 38.73396 | -98.22568 | 24949 ft | 336 kts | 62° |
| 2026-05-07 20:52 | 38.74272 | -98.19797 | 24949 ft | 336 kts | 62° |
| 2026-05-07 20:52 | 38.75147 | -98.17027 | 24949 ft | 336 kts | 62° |
| 2026-05-07 20:53 | 38.76022 | -98.14255 | 24949 ft | 336 kts | 62° |
| 2026-05-07 20:53 | 38.76897 | -98.11482 | 24948 ft | 336 kts | 62° |
| 2026-05-07 20:53 | 38.77773 | -98.08709 | 24948 ft | 336 kts | 62° |
| 2026-05-07 20:53 | 38.78649 | -98.05934 | 24947 ft | 336 kts | 62° |
| 2026-05-07 20:54 | 38.79525 | -98.03160 | 24946 ft | 336 kts | 62° |
| 2026-05-07 20:54 | 38.80401 | -98.00383 | 24944 ft | 336 kts | 62° |
| 2026-05-07 20:54 | 38.81270 | -97.97598 | 24944 ft | 336 kts | 61° |
| 2026-05-07 20:54 | 38.82118 | -97.94805 | 24942 ft | 336 kts | 61° |
| 2026-05-07 20:55 | 38.82960 | -97.92004 | 24941 ft | 336 kts | 62° |
| 2026-05-07 20:55 | 38.83797 | -97.89207 | 24940 ft | 336 kts | 62° |
| 2026-05-07 20:55 | 38.84621 | -97.86443 | 24940 ft | 336 kts | 62° |
| 2026-05-07 20:55 | 38.85455 | -97.83643 | 24939 ft | 336 kts | 62° |
| 2026-05-07 20:56 | 38.86287 | -97.80847 | 24939 ft | 335 kts | 62° |
| 2026-05-07 20:56 | 38.87118 | -97.78052 | 24939 ft | 335 kts | 62° |
| 2026-05-07 20:56 | 38.87948 | -97.75258 | 24939 ft | 335 kts | 62° |
| 2026-05-07 20:56 | 38.88776 | -97.72469 | 24939 ft | 335 kts | 62° |
| 2026-05-07 20:57 | 38.89603 | -97.69683 | 24938 ft | 334 kts | 62° |
| 2026-05-07 20:57 | 38.90430 | -97.66892 | 24938 ft | 334 kts | 62° |
| 2026-05-07 20:57 | 38.91257 | -97.64106 | 24938 ft | 334 kts | 62° |
| 2026-05-07 20:57 | 38.92087 | -97.61318 | 24938 ft | 334 kts | 62° |
| 2026-05-07 20:58 | 38.92918 | -97.58530 | 24938 ft | 334 kts | 62° |
| 2026-05-07 20:58 | 38.93748 | -97.55745 | 24938 ft | 334 kts | 62° |
| 2026-05-07 20:58 | 38.94576 | -97.52953 | 24938 ft | 335 kts | 62° |
| 2026-05-07 20:58 | 38.95367 | -97.50139 | 24938 ft | 335 kts | 63° |
| 2026-05-07 20:59 | 38.96160 | -97.47324 | 24938 ft | 335 kts | 63° |
| 2026-05-07 20:59 | 38.96957 | -97.44514 | 24937 ft | 335 kts | 63° |
| 2026-05-07 20:59 | 38.97755 | -97.41705 | 24937 ft | 335 kts | 63° |
| 2026-05-07 20:59 | 38.98553 | -97.38899 | 24936 ft | 334 kts | 63° |
| 2026-05-07 21:00 | 38.99352 | -97.36089 | 24936 ft | 334 kts | 63° |
| 2026-05-07 21:00 | 39.00149 | -97.33284 | 24934 ft | 334 kts | 63° |
| 2026-05-07 21:00 | 39.00947 | -97.30475 | 24924 ft | 335 kts | 63° |
| 2026-05-07 21:00 | 39.01747 | -97.27663 | 24918 ft | 335 kts | 63° |
| 2026-05-07 21:01 | 39.02546 | -97.24855 | 24917 ft | 335 kts | 63° |
| 2026-05-07 21:01 | 39.03348 | -97.22045 | 24917 ft | 335 kts | 63° |
| 2026-05-07 21:01 | 39.04150 | -97.19238 | 24916 ft | 334 kts | 63° |
| 2026-05-07 21:01 | 39.04952 | -97.16430 | 24915 ft | 334 kts | 63° |
| 2026-05-07 21:02 | 39.05754 | -97.13624 | 24916 ft | 334 kts | 63° |
| 2026-05-07 21:02 | 39.06556 | -97.10816 | 24916 ft | 334 kts | 63° |
| 2026-05-07 21:02 | 39.07357 | -97.08009 | 24917 ft | 334 kts | 63° |
| 2026-05-07 21:02 | 39.08159 | -97.05200 | 24918 ft | 334 kts | 63° |
| 2026-05-07 21:03 | 39.08961 | -97.02392 | 24918 ft | 334 kts | 63° |
| 2026-05-07 21:03 | 39.09761 | -96.99588 | 24919 ft | 334 kts | 63° |
| 2026-05-07 21:03 | 39.10555 | -96.96818 | 24919 ft | 334 kts | 63° |
| 2026-05-07 21:03 | 39.11358 | -96.94014 | 24920 ft | 334 kts | 63° |
| 2026-05-07 21:04 | 39.12163 | -96.91210 | 24920 ft | 334 kts | 63° |
| 2026-05-07 21:04 | 39.12979 | -96.88364 | 24920 ft | 334 kts | 63° |
| 2026-05-07 21:04 | 39.13773 | -96.85598 | 24921 ft | 334 kts | 63° |
| 2026-05-07 21:04 | 39.14517 | -96.82753 | 24925 ft | 335 kts | 65° |
| 2026-05-07 21:05 | 39.15248 | -96.79904 | 24926 ft | 335 kts | 65° |
| 2026-05-07 21:05 | 39.15985 | -96.77054 | 24918 ft | 335 kts | 65° |
| 2026-05-07 21:05 | 39.16725 | -96.74204 | 24913 ft | 336 kts | 65° |
| 2026-05-07 21:05 | 39.17466 | -96.71351 | 24912 ft | 336 kts | 65° |
| 2026-05-07 21:06 | 39.18208 | -96.68500 | 24911 ft | 336 kts | 65° |
| 2026-05-07 21:06 | 39.18950 | -96.65649 | 24910 ft | 336 kts | 65° |
| 2026-05-07 21:06 | 39.19692 | -96.62798 | 24909 ft | 336 kts | 65° |
| 2026-05-07 21:06 | 39.20439 | -96.59942 | 24922 ft | 338 kts | 65° |
| 2026-05-07 21:07 | 39.21195 | -96.57054 | 24910 ft | 342 kts | 65° |
| 2026-05-07 21:07 | 39.21958 | -96.54151 | 24903 ft | 342 kts | 65° |
| 2026-05-07 21:07 | 39.22719 | -96.51252 | 24904 ft | 341 kts | 65° |
| 2026-05-07 21:07 | 39.23478 | -96.48351 | 24907 ft | 341 kts | 65° |
| 2026-05-07 21:08 | 39.24236 | -96.45455 | 24908 ft | 341 kts | 65° |
| 2026-05-07 21:08 | 39.24993 | -96.42561 | 24909 ft | 340 kts | 65° |
| 2026-05-07 21:08 | 39.25749 | -96.39667 | 24909 ft | 340 kts | 65° |
| 2026-05-07 21:08 | 39.26505 | -96.36776 | 24909 ft | 340 kts | 65° |
| 2026-05-07 21:09 | 39.27260 | -96.33885 | 24909 ft | 340 kts | 65° |
| 2026-05-07 21:09 | 39.28014 | -96.30996 | 24910 ft | 340 kts | 65° |
| 2026-05-07 21:09 | 39.28768 | -96.28108 | 24910 ft | 339 kts | 65° |
| 2026-05-07 21:09 | 39.29522 | -96.25221 | 24910 ft | 339 kts | 65° |
| 2026-05-07 21:10 | 39.30273 | -96.22333 | 24909 ft | 339 kts | 65° |
| 2026-05-07 21:10 | 39.31021 | -96.19446 | 24909 ft | 339 kts | 65° |
| 2026-05-07 21:10 | 39.31770 | -96.16560 | 24909 ft | 339 kts | 65° |
| 2026-05-07 21:10 | 39.32516 | -96.13677 | 24910 ft | 339 kts | 65° |
| 2026-05-07 21:11 | 39.33263 | -96.10793 | 24910 ft | 338 kts | 65° |
| 2026-05-07 21:11 | 39.34009 | -96.07912 | 24911 ft | 338 kts | 65° |
| 2026-05-07 21:11 | 39.35502 | -96.02153 | 24912 ft | 338 kts | 65° |
| 2026-05-07 21:12 | 39.36241 | -95.99276 | 24912 ft | 338 kts | 65° |
| 2026-05-07 21:12 | 39.36950 | -95.96380 | 24912 ft | 338 kts | 66° |
| 2026-05-07 21:12 | 39.37639 | -95.93471 | 24913 ft | 338 kts | 66° |
| 2026-05-07 21:12 | 39.38337 | -95.90571 | 24914 ft | 338 kts | 66° |
| 2026-05-07 21:13 | 39.39039 | -95.87676 | 24914 ft | 338 kts | 66° |
| 2026-05-07 21:13 | 39.39743 | -95.84781 | 24914 ft | 337 kts | 66° |
| 2026-05-07 21:13 | 39.40448 | -95.81888 | 24914 ft | 337 kts | 65° |
| 2026-05-07 21:13 | 39.41152 | -95.78997 | 24914 ft | 337 kts | 65° |
| 2026-05-07 21:14 | 39.41858 | -95.76102 | 24915 ft | 337 kts | 65° |
| 2026-05-07 21:14 | 39.42562 | -95.73212 | 24915 ft | 337 kts | 65° |
| 2026-05-07 21:14 | 39.43267 | -95.70319 | 24914 ft | 337 kts | 65° |
| 2026-05-07 21:14 | 39.43972 | -95.67426 | 24914 ft | 337 kts | 65° |
| 2026-05-07 21:15 | 39.44677 | -95.64536 | 24914 ft | 337 kts | 65° |
| 2026-05-07 21:15 | 39.45371 | -95.61684 | 24918 ft | 337 kts | 65° |
| 2026-05-07 21:15 | 39.46075 | -95.58796 | 24921 ft | 337 kts | 65° |
| 2026-05-07 21:15 | 39.46778 | -95.55905 | 24923 ft | 337 kts | 65° |
| 2026-05-07 21:16 | 39.47479 | -95.53017 | 24924 ft | 337 kts | 65° |
| 2026-05-07 21:16 | 39.48178 | -95.50127 | 24924 ft | 337 kts | 65° |
| 2026-05-07 21:16 | 39.48877 | -95.47236 | 24924 ft | 337 kts | 65° |
| 2026-05-07 21:16 | 39.49576 | -95.44344 | 24924 ft | 337 kts | 65° |
| 2026-05-07 21:17 | 39.50275 | -95.41451 | 24924 ft | 337 kts | 65° |
| 2026-05-07 21:17 | 39.50974 | -95.38559 | 24923 ft | 337 kts | 65° |
| 2026-05-07 21:17 | 39.51672 | -95.35667 | 24923 ft | 337 kts | 65° |
| 2026-05-07 21:17 | 39.52371 | -95.32774 | 24923 ft | 337 kts | 65° |
| 2026-05-07 21:18 | 39.53070 | -95.29880 | 24923 ft | 337 kts | 65° |
| 2026-05-07 21:18 | 39.53769 | -95.26986 | 24922 ft | 337 kts | 65° |
| 2026-05-07 21:18 | 39.54469 | -95.24095 | 24922 ft | 337 kts | 66° |
| 2026-05-07 21:18 | 39.55174 | -95.21201 | 24922 ft | 337 kts | 66° |
| 2026-05-07 21:19 | 39.55881 | -95.18310 | 24924 ft | 337 kts | 66° |
| 2026-05-07 21:19 | 39.56589 | -95.15418 | 24926 ft | 337 kts | 65° |
| 2026-05-07 21:19 | 39.57297 | -95.12525 | 24926 ft | 337 kts | 65° |
| 2026-05-07 21:19 | 39.58006 | -95.09635 | 24923 ft | 337 kts | 65° |
| 2026-05-07 21:20 | 39.58716 | -95.06742 | 24938 ft | 337 kts | 65° |
| 2026-05-07 21:20 | 39.59424 | -95.03849 | 24931 ft | 337 kts | 65° |
| 2026-05-07 21:20 | 39.60130 | -95.00953 | 24937 ft | 337 kts | 65° |
| 2026-05-07 21:20 | 39.60837 | -94.98055 | 24931 ft | 337 kts | 65° |
| 2026-05-07 21:21 | 39.61544 | -94.95151 | 24926 ft | 338 kts | 65° |
| 2026-05-07 21:21 | 39.62252 | -94.92247 | 24921 ft | 338 kts | 66° |
| 2026-05-07 21:21 | 39.62949 | -94.89336 | 24921 ft | 339 kts | 66° |
| 2026-05-07 21:21 | 39.63594 | -94.86394 | 24929 ft | 339 kts | 68° |
| 2026-05-07 21:22 | 39.64237 | -94.83455 | 24930 ft | 339 kts | 68° |
| 2026-05-07 21:22 | 39.64878 | -94.80512 | 24929 ft | 339 kts | 68° |
| 2026-05-07 21:22 | 39.65517 | -94.77570 | 24930 ft | 339 kts | 68° |
| 2026-05-07 21:22 | 39.66157 | -94.74620 | 24931 ft | 339 kts | 68° |
| 2026-05-07 21:23 | 39.66796 | -94.71674 | 24933 ft | 339 kts | 68° |
| 2026-05-07 21:23 | 39.67426 | -94.68765 | 24936 ft | 339 kts | 68° |
| 2026-05-07 21:23 | 39.68066 | -94.65814 | 24940 ft | 339 kts | 68° |
| 2026-05-07 21:23 | 39.68706 | -94.62862 | 24943 ft | 339 kts | 68° |
| 2026-05-07 21:24 | 39.69345 | -94.59911 | 24946 ft | 339 kts | 68° |
| 2026-05-07 21:24 | 39.69984 | -94.56962 | 24950 ft | 339 kts | 68° |
| 2026-05-07 21:24 | 39.70622 | -94.54017 | 24954 ft | 339 kts | 68° |
| 2026-05-07 21:24 | 39.71260 | -94.51067 | 24958 ft | 339 kts | 68° |
| 2026-05-07 21:25 | 39.71898 | -94.48120 | 24962 ft | 339 kts | 68° |
| 2026-05-07 21:25 | 39.72536 | -94.45173 | 24965 ft | 339 kts | 68° |
| 2026-05-07 21:25 | 39.73174 | -94.42226 | 24969 ft | 339 kts | 68° |
| 2026-05-07 21:25 | 39.73812 | -94.39277 | 24972 ft | 339 kts | 68° |
| 2026-05-07 21:26 | 39.74450 | -94.36330 | 24975 ft | 339 kts | 68° |
| 2026-05-07 21:26 | 39.75089 | -94.33380 | 24976 ft | 339 kts | 68° |
| 2026-05-07 21:26 | 39.75727 | -94.30430 | 24978 ft | 339 kts | 68° |
| 2026-05-07 21:26 | 39.76365 | -94.27481 | 24978 ft | 339 kts | 68° |
| 2026-05-07 21:27 | 39.77004 | -94.24528 | 24978 ft | 339 kts | 68° |
| 2026-05-07 21:27 | 39.77643 | -94.21576 | 24978 ft | 339 kts | 68° |
| 2026-05-07 21:27 | 39.78282 | -94.18623 | 24978 ft | 340 kts | 68° |
| 2026-05-07 21:27 | 39.78923 | -94.15664 | 24977 ft | 340 kts | 68° |
| 2026-05-07 21:28 | 39.79562 | -94.12709 | 24976 ft | 340 kts | 68° |
| 2026-05-07 21:28 | 39.80195 | -94.09787 | 24974 ft | 340 kts | 68° |
| 2026-05-07 21:28 | 39.80836 | -94.06827 | 24973 ft | 340 kts | 68° |
| 2026-05-07 21:28 | 39.81477 | -94.03869 | 24971 ft | 340 kts | 68° |
| 2026-05-07 21:29 | 39.82119 | -94.00904 | 24968 ft | 341 kts | 68° |
| 2026-05-07 21:29 | 39.82761 | -93.97938 | 24964 ft | 341 kts | 68° |
| 2026-05-07 21:29 | 39.83403 | -93.94975 | 24961 ft | 341 kts | 68° |
| 2026-05-07 21:29 | 39.84048 | -93.92000 | 24958 ft | 341 kts | 68° |
| 2026-05-07 21:30 | 39.84689 | -93.89029 | 24956 ft | 341 kts | 68° |
| 2026-05-07 21:30 | 39.85326 | -93.86055 | 24955 ft | 341 kts | 68° |
| 2026-05-07 21:30 | 39.85961 | -93.83082 | 24954 ft | 341 kts | 68° |
| 2026-05-07 21:30 | 39.86595 | -93.80103 | 24952 ft | 341 kts | 68° |
| 2026-05-07 21:31 | 39.87229 | -93.77128 | 24951 ft | 341 kts | 68° |
| 2026-05-07 21:31 | 39.87862 | -93.74150 | 24950 ft | 341 kts | 68° |
| 2026-05-07 21:31 | 39.88496 | -93.71173 | 24950 ft | 341 kts | 68° |
| 2026-05-07 21:31 | 39.89132 | -93.68199 | 24949 ft | 341 kts | 68° |
| 2026-05-07 21:32 | 39.89766 | -93.65221 | 24949 ft | 341 kts | 68° |
| 2026-05-07 21:32 | 39.90398 | -93.62243 | 24949 ft | 341 kts | 68° |
| 2026-05-07 21:32 | 39.91028 | -93.59261 | 24949 ft | 341 kts | 68° |
| 2026-05-07 21:32 | 39.91657 | -93.56282 | 24949 ft | 341 kts | 68° |
| 2026-05-07 21:33 | 39.92287 | -93.53300 | 24949 ft | 341 kts | 68° |
| 2026-05-07 21:33 | 39.92916 | -93.50320 | 24948 ft | 341 kts | 68° |
| 2026-05-07 21:33 | 39.93544 | -93.47340 | 24949 ft | 341 kts | 68° |
| 2026-05-07 21:33 | 39.94174 | -93.44355 | 24949 ft | 341 kts | 68° |
| 2026-05-07 21:34 | 39.94800 | -93.41372 | 24949 ft | 341 kts | 68° |
| 2026-05-07 21:34 | 39.95426 | -93.38388 | 24949 ft | 341 kts | 68° |
| 2026-05-07 21:34 | 39.96052 | -93.35401 | 24949 ft | 342 kts | 68° |
| 2026-05-07 21:34 | 39.96677 | -93.32417 | 24949 ft | 342 kts | 68° |
| 2026-05-07 21:35 | 39.97301 | -93.29428 | 24949 ft | 342 kts | 68° |
| 2026-05-07 21:35 | 39.97926 | -93.26441 | 24949 ft | 342 kts | 68° |
| 2026-05-07 21:35 | 39.98556 | -93.23453 | 24949 ft | 342 kts | 68° |
| 2026-05-07 21:35 | 39.99187 | -93.20464 | 24949 ft | 342 kts | 68° |
| 2026-05-07 21:36 | 39.99818 | -93.17472 | 24949 ft | 342 kts | 68° |
| 2026-05-07 21:36 | 40.00440 | -93.14476 | 24948 ft | 343 kts | 66° |
| 2026-05-07 21:36 | 40.01024 | -93.11498 | 24948 ft | 344 kts | 67° |
| 2026-05-07 21:36 | 40.01675 | -93.08514 | 24948 ft | 342 kts | 65° |
| 2026-05-07 21:37 | 40.02344 | -93.05541 | 24949 ft | 342 kts | 65° |
| 2026-05-07 21:37 | 40.03018 | -93.02565 | 24949 ft | 342 kts | 65° |
| 2026-05-07 21:37 | 40.03694 | -92.99587 | 24949 ft | 342 kts | 65° |
| 2026-05-07 21:37 | 40.04372 | -92.96604 | 24949 ft | 343 kts | 65° |
| 2026-05-07 21:38 | 40.05053 | -92.93621 | 24949 ft | 343 kts | 65° |
| 2026-05-07 21:38 | 40.05733 | -92.90653 | 24949 ft | 343 kts | 65° |
| 2026-05-07 21:38 | 40.06422 | -92.87656 | 24949 ft | 343 kts | 65° |
| 2026-05-07 21:38 | 40.07108 | -92.84668 | 24949 ft | 344 kts | 65° |
| 2026-05-07 21:39 | 40.07564 | -92.82689 | 24949 ft | 344 kts | 65° |
| 2026-05-07 21:39 | 40.08252 | -92.79699 | 24949 ft | 344 kts | 65° |
| 2026-05-07 21:39 | 40.08941 | -92.76702 | 24949 ft | 344 kts | 65° |
| 2026-05-07 21:39 | 40.09631 | -92.73712 | 24948 ft | 345 kts | 65° |
| 2026-05-07 21:40 | 40.10561 | -92.69700 | 24948 ft | 345 kts | 65° |
| 2026-05-07 21:40 | 40.11022 | -92.67716 | 24948 ft | 345 kts | 65° |
| 2026-05-07 21:40 | 40.11718 | -92.64718 | 24948 ft | 345 kts | 65° |
| 2026-05-07 21:40 | 40.12417 | -92.61715 | 24948 ft | 345 kts | 65° |
| 2026-05-07 21:41 | 40.13115 | -92.58712 | 24949 ft | 346 kts | 65° |
| 2026-05-07 21:41 | 40.13814 | -92.55709 | 24949 ft | 346 kts | 65° |
| 2026-05-07 21:41 | 40.14514 | -92.52701 | 24949 ft | 346 kts | 65° |
| 2026-05-07 21:41 | 40.15218 | -92.49694 | 24949 ft | 346 kts | 65° |
| 2026-05-07 21:42 | 40.15923 | -92.46688 | 24949 ft | 346 kts | 65° |
| 2026-05-07 21:42 | 40.16629 | -92.43681 | 24949 ft | 346 kts | 65° |
| 2026-05-07 21:42 | 40.17338 | -92.40669 | 24948 ft | 347 kts | 65° |
| 2026-05-07 21:42 | 40.18048 | -92.37658 | 24948 ft | 347 kts | 65° |
| 2026-05-07 21:43 | 40.18761 | -92.34644 | 24947 ft | 347 kts | 65° |
| 2026-05-07 21:43 | 40.19474 | -92.31632 | 24947 ft | 347 kts | 65° |
| 2026-05-07 21:43 | 40.20189 | -92.28614 | 24946 ft | 347 kts | 65° |
| 2026-05-07 21:43 | 40.20903 | -92.25597 | 24946 ft | 347 kts | 65° |
| 2026-05-07 21:44 | 40.21618 | -92.22583 | 24945 ft | 347 kts | 65° |
| 2026-05-07 21:44 | 40.22333 | -92.19564 | 24945 ft | 347 kts | 65° |
| 2026-05-07 21:44 | 40.23052 | -92.16545 | 24944 ft | 348 kts | 65° |
| 2026-05-07 21:44 | 40.23773 | -92.13524 | 24944 ft | 348 kts | 65° |
| 2026-05-07 21:45 | 40.24493 | -92.10508 | 24943 ft | 348 kts | 65° |
| 2026-05-07 21:45 | 40.25216 | -92.07484 | 24943 ft | 348 kts | 65° |
| 2026-05-07 21:45 | 40.25939 | -92.04460 | 24941 ft | 348 kts | 65° |
| 2026-05-07 21:45 | 40.26662 | -92.01437 | 24940 ft | 348 kts | 65° |
| 2026-05-07 21:46 | 40.27382 | -91.98409 | 24939 ft | 349 kts | 64° |
| 2026-05-07 21:46 | 40.28073 | -91.95357 | 24938 ft | 350 kts | 64° |
| 2026-05-07 21:46 | 40.28751 | -91.92300 | 24937 ft | 350 kts | 64° |
| 2026-05-07 21:46 | 40.29423 | -91.89234 | 24936 ft | 350 kts | 64° |
| 2026-05-07 21:47 | 40.30094 | -91.86165 | 24935 ft | 351 kts | 64° |
| 2026-05-07 21:47 | 40.30763 | -91.83094 | 24934 ft | 351 kts | 64° |
| 2026-05-07 21:47 | 40.31432 | -91.80021 | 24933 ft | 351 kts | 65° |
| 2026-05-07 21:47 | 40.32102 | -91.76946 | 24932 ft | 351 kts | 65° |
| 2026-05-07 21:48 | 40.32772 | -91.73866 | 24929 ft | 351 kts | 65° |
| 2026-05-07 21:48 | 40.33442 | -91.70789 | 24927 ft | 352 kts | 65° |
| 2026-05-07 21:48 | 40.34116 | -91.67709 | 24926 ft | 352 kts | 65° |
| 2026-05-07 21:48 | 40.34793 | -91.64628 | 24925 ft | 352 kts | 65° |
| 2026-05-07 21:49 | 40.35470 | -91.61546 | 24924 ft | 351 kts | 65° |
| 2026-05-07 21:49 | 40.36147 | -91.58466 | 24923 ft | 352 kts | 65° |
| 2026-05-07 21:49 | 40.36824 | -91.55386 | 24922 ft | 352 kts | 65° |
| 2026-05-07 21:49 | 40.37503 | -91.52300 | 24922 ft | 352 kts | 65° |
| 2026-05-07 21:50 | 40.38153 | -91.49194 | 24920 ft | 355 kts | 66° |
| 2026-05-07 21:50 | 40.38709 | -91.46030 | 24921 ft | 356 kts | 69° |
| 2026-05-07 21:50 | 40.39262 | -91.42867 | 24921 ft | 356 kts | 69° |
| 2026-05-07 21:50 | 40.39818 | -91.39705 | 24920 ft | 356 kts | 69° |
| 2026-05-07 21:51 | 40.40369 | -91.36583 | 24920 ft | 356 kts | 69° |
| 2026-05-07 21:51 | 40.40937 | -91.33364 | 24920 ft | 356 kts | 69° |
| 2026-05-07 21:51 | 40.41496 | -91.30198 | 24920 ft | 357 kts | 69° |
| 2026-05-07 21:51 | 40.42048 | -91.27069 | 24922 ft | 357 kts | 69° |
| 2026-05-07 21:52 | 40.42610 | -91.23896 | 24923 ft | 357 kts | 69° |
| 2026-05-07 21:52 | 40.43175 | -91.20725 | 24924 ft | 357 kts | 69° |
| 2026-05-07 21:52 | 40.43742 | -91.17555 | 24925 ft | 357 kts | 69° |
| 2026-05-07 21:52 | 40.44309 | -91.14384 | 24926 ft | 357 kts | 69° |
| 2026-05-07 21:53 | 40.44877 | -91.11210 | 24928 ft | 357 kts | 69° |
| 2026-05-07 21:53 | 40.45445 | -91.08038 | 24931 ft | 357 kts | 69° |
| 2026-05-07 21:53 | 40.46016 | -91.04867 | 24938 ft | 357 kts | 69° |
| 2026-05-07 21:53 | 40.46588 | -91.01700 | 24944 ft | 357 kts | 69° |
| 2026-05-07 21:54 | 40.47162 | -90.98533 | 24945 ft | 357 kts | 69° |
| 2026-05-07 21:54 | 40.47737 | -90.95360 | 24943 ft | 357 kts | 69° |
| 2026-05-07 21:54 | 40.48313 | -90.92188 | 24944 ft | 357 kts | 69° |
| 2026-05-07 21:54 | 40.48890 | -90.89012 | 24945 ft | 357 kts | 69° |
| 2026-05-07 21:55 | 40.49470 | -90.85840 | 24948 ft | 357 kts | 69° |
| 2026-05-07 21:55 | 40.50052 | -90.82666 | 24950 ft | 357 kts | 69° |
| 2026-05-07 21:55 | 40.50636 | -90.79488 | 24953 ft | 358 kts | 69° |
| 2026-05-07 21:55 | 40.51220 | -90.76314 | 24955 ft | 358 kts | 69° |
| 2026-05-07 21:56 | 40.51804 | -90.73140 | 24956 ft | 358 kts | 69° |
| 2026-05-07 21:56 | 40.52389 | -90.69956 | 24957 ft | 358 kts | 69° |
| 2026-05-07 21:56 | 40.52977 | -90.66771 | 24958 ft | 358 kts | 69° |
| 2026-05-07 21:56 | 40.53559 | -90.63625 | 24959 ft | 358 kts | 69° |
| 2026-05-07 21:57 | 40.54149 | -90.60439 | 24959 ft | 359 kts | 69° |
| 2026-05-07 21:57 | 40.54740 | -90.57253 | 24959 ft | 359 kts | 69° |
| 2026-05-07 21:57 | 40.55330 | -90.54068 | 24958 ft | 359 kts | 69° |
| 2026-05-07 21:57 | 40.55922 | -90.50875 | 24957 ft | 359 kts | 69° |
| 2026-05-07 21:58 | 40.56515 | -90.47681 | 24956 ft | 359 kts | 69° |
| 2026-05-07 21:58 | 40.57110 | -90.44487 | 24955 ft | 360 kts | 69° |
| 2026-05-07 21:58 | 40.57709 | -90.41293 | 24954 ft | 360 kts | 69° |
| 2026-05-07 21:58 | 40.58309 | -90.38098 | 24954 ft | 360 kts | 69° |
| 2026-05-07 21:59 | 40.58911 | -90.34900 | 24953 ft | 360 kts | 69° |
| 2026-05-07 21:59 | 40.59513 | -90.31699 | 24952 ft | 360 kts | 69° |
| 2026-05-07 21:59 | 40.60116 | -90.28500 | 24952 ft | 361 kts | 69° |
| 2026-05-07 21:59 | 40.60719 | -90.25298 | 24951 ft | 361 kts | 69° |
| 2026-05-07 22:00 | 40.61322 | -90.22097 | 24952 ft | 361 kts | 69° |
| 2026-05-07 22:00 | 40.61926 | -90.18892 | 24952 ft | 361 kts | 69° |
| 2026-05-07 22:00 | 40.62530 | -90.15683 | 24952 ft | 361 kts | 69° |
| 2026-05-07 22:00 | 40.63133 | -90.12477 | 24952 ft | 361 kts | 69° |
| 2026-05-07 22:01 | 40.63737 | -90.09266 | 24952 ft | 361 kts | 69° |
| 2026-05-07 22:01 | 40.64343 | -90.06054 | 24953 ft | 361 kts | 69° |
| 2026-05-07 22:01 | 40.64948 | -90.02843 | 24954 ft | 362 kts | 69° |
| 2026-05-07 22:01 | 40.65554 | -89.99628 | 24955 ft | 362 kts | 69° |
| 2026-05-07 22:02 | 40.66161 | -89.96419 | 24958 ft | 361 kts | 69° |
| 2026-05-07 22:02 | 40.66772 | -89.93216 | 24957 ft | 361 kts | 69° |
| 2026-05-07 22:02 | 40.67384 | -89.90017 | 24956 ft | 360 kts | 69° |
| 2026-05-07 22:02 | 40.67997 | -89.86822 | 24955 ft | 360 kts | 69° |
| 2026-05-07 22:03 | 40.68614 | -89.83625 | 24956 ft | 359 kts | 69° |
| 2026-05-07 22:03 | 40.69169 | -89.80410 | 24954 ft | 362 kts | 72° |
| 2026-05-07 22:03 | 40.69507 | -89.77106 | 24957 ft | 364 kts | 78° |
| 2026-05-07 22:03 | 40.69751 | -89.73791 | 24960 ft | 364 kts | 79° |
| 2026-05-07 22:04 | 40.70004 | -89.70511 | 24959 ft | 363 kts | 79° |
| 2026-05-07 22:04 | 40.70264 | -89.67195 | 24959 ft | 363 kts | 79° |
| 2026-05-07 22:04 | 40.70527 | -89.63878 | 24959 ft | 363 kts | 79° |
| 2026-05-07 22:04 | 40.70794 | -89.60570 | 24958 ft | 363 kts | 79° |
| 2026-05-07 22:05 | 40.71063 | -89.57259 | 24958 ft | 363 kts | 78° |
| 2026-05-07 22:05 | 40.71334 | -89.53947 | 24957 ft | 363 kts | 78° |
| 2026-05-07 22:05 | 40.71605 | -89.50638 | 24955 ft | 363 kts | 78° |
| 2026-05-07 22:05 | 40.71875 | -89.47327 | 24954 ft | 363 kts | 79° |
| 2026-05-07 22:06 | 40.72149 | -89.44019 | 24953 ft | 363 kts | 79° |
| 2026-05-07 22:06 | 40.72425 | -89.40714 | 24952 ft | 363 kts | 79° |
| 2026-05-07 22:06 | 40.72703 | -89.37405 | 24953 ft | 363 kts | 78° |
| 2026-05-07 22:06 | 40.72982 | -89.34098 | 24953 ft | 363 kts | 78° |
| 2026-05-07 22:07 | 40.73261 | -89.30786 | 24953 ft | 364 kts | 79° |
| 2026-05-07 22:07 | 40.73545 | -89.27472 | 24953 ft | 364 kts | 79° |
| 2026-05-07 22:07 | 40.73829 | -89.24156 | 24953 ft | 364 kts | 78° |
| 2026-05-07 22:07 | 40.74114 | -89.20840 | 24955 ft | 364 kts | 78° |
| 2026-05-07 22:08 | 40.74399 | -89.17520 | 24958 ft | 364 kts | 78° |
| 2026-05-07 22:08 | 40.74686 | -89.14205 | 24960 ft | 364 kts | 79° |
| 2026-05-07 22:08 | 40.74977 | -89.10892 | 24962 ft | 364 kts | 79° |
| 2026-05-07 22:08 | 40.75269 | -89.07578 | 24963 ft | 364 kts | 78° |
| 2026-05-07 22:09 | 40.75560 | -89.04262 | 24965 ft | 364 kts | 78° |
| 2026-05-07 22:09 | 40.75852 | -89.00942 | 24966 ft | 364 kts | 78° |
| 2026-05-07 22:09 | 40.76146 | -88.97627 | 24967 ft | 364 kts | 79° |
| 2026-05-07 22:09 | 40.76440 | -88.94355 | 24968 ft | 364 kts | 78° |
| 2026-05-07 22:10 | 40.76739 | -88.91037 | 24968 ft | 364 kts | 78° |
| 2026-05-07 22:10 | 40.77039 | -88.87720 | 24967 ft | 364 kts | 78° |
| 2026-05-07 22:10 | 40.77337 | -88.84401 | 24965 ft | 365 kts | 78° |
| 2026-05-07 22:10 | 40.77638 | -88.81079 | 24964 ft | 365 kts | 79° |
| 2026-05-07 22:11 | 40.77942 | -88.77755 | 24963 ft | 365 kts | 79° |
| 2026-05-07 22:11 | 40.78247 | -88.74433 | 24963 ft | 365 kts | 78° |
| 2026-05-07 22:11 | 40.78554 | -88.71104 | 24962 ft | 365 kts | 78° |
| 2026-05-07 22:11 | 40.78861 | -88.67778 | 24962 ft | 365 kts | 78° |
| 2026-05-07 22:12 | 40.79167 | -88.64453 | 24961 ft | 366 kts | 78° |
| 2026-05-07 22:12 | 40.79475 | -88.61122 | 24961 ft | 366 kts | 79° |
| 2026-05-07 22:12 | 40.79787 | -88.57785 | 24961 ft | 366 kts | 78° |
| 2026-05-07 22:12 | 40.80101 | -88.54454 | 24961 ft | 366 kts | 78° |
| 2026-05-07 22:13 | 40.80415 | -88.51116 | 24961 ft | 366 kts | 78° |
| 2026-05-07 22:13 | 40.80730 | -88.47783 | 24961 ft | 367 kts | 78° |
| 2026-05-07 22:13 | 40.81046 | -88.44438 | 24961 ft | 367 kts | 78° |
| 2026-05-07 22:13 | 40.81361 | -88.41102 | 24962 ft | 367 kts | 78° |
| 2026-05-07 22:14 | 40.81676 | -88.37757 | 24964 ft | 367 kts | 78° |
| 2026-05-07 22:14 | 40.81990 | -88.34414 | 24966 ft | 367 kts | 78° |
| 2026-05-07 22:14 | 40.82229 | -88.31054 | 24967 ft | 368 kts | 81° |
| 2026-05-07 22:14 | 40.82452 | -88.27684 | 24968 ft | 368 kts | 81° |
| 2026-05-07 22:15 | 40.82661 | -88.24315 | 24969 ft | 369 kts | 82° |
| 2026-05-07 22:15 | 40.82847 | -88.20939 | 24969 ft | 369 kts | 82° |
| 2026-05-07 22:15 | 40.83047 | -88.17556 | 24969 ft | 369 kts | 82° |
| 2026-05-07 22:15 | 40.83251 | -88.14179 | 24969 ft | 369 kts | 82° |
| 2026-05-07 22:16 | 40.83455 | -88.10848 | 24971 ft | 369 kts | 82° |
| 2026-05-07 22:16 | 40.83663 | -88.07470 | 24971 ft | 369 kts | 82° |
| 2026-05-07 22:16 | 40.83875 | -88.04049 | 24971 ft | 369 kts | 82° |
| 2026-05-07 22:16 | 40.84077 | -88.00664 | 24971 ft | 370 kts | 82° |
| 2026-05-07 22:17 | 40.84215 | -87.97321 | 24972 ft | 370 kts | 84° |
| 2026-05-07 22:17 | 40.84374 | -87.93890 | 24971 ft | 369 kts | 84° |
| 2026-05-07 22:17 | 40.84543 | -87.90515 | 24969 ft | 368 kts | 84° |
| 2026-05-07 22:17 | 40.84715 | -87.87190 | 24967 ft | 368 kts | 84° |
| 2026-05-07 22:18 | 40.84892 | -87.83819 | 24966 ft | 368 kts | 84° |
| 2026-05-07 22:18 | 40.85248 | -87.77092 | 24970 ft | 367 kts | 84° |
| 2026-05-07 22:18 | 40.85425 | -87.73736 | 24971 ft | 366 kts | 84° |
| 2026-05-07 22:19 | 40.85603 | -87.70382 | 24971 ft | 366 kts | 84° |
| 2026-05-07 22:19 | 40.85784 | -87.67030 | 24972 ft | 366 kts | 84° |
| 2026-05-07 22:19 | 40.85966 | -87.63679 | 24973 ft | 366 kts | 84° |
| 2026-05-07 22:19 | 40.86148 | -87.60333 | 24974 ft | 365 kts | 84° |
| 2026-05-07 22:20 | 40.86332 | -87.56985 | 24975 ft | 365 kts | 84° |
| 2026-05-07 22:20 | 40.86514 | -87.53645 | 24977 ft | 365 kts | 84° |
| 2026-05-07 22:20 | 40.86696 | -87.50299 | 24978 ft | 365 kts | 84° |
| 2026-05-07 22:20 | 40.86878 | -87.46962 | 24979 ft | 365 kts | 84° |
| 2026-05-07 22:21 | 40.87061 | -87.43620 | 24980 ft | 365 kts | 84° |
| 2026-05-07 22:21 | 40.87249 | -87.40281 | 24980 ft | 365 kts | 84° |
| 2026-05-07 22:21 | 40.87438 | -87.36938 | 24980 ft | 365 kts | 84° |
| 2026-05-07 22:21 | 40.87627 | -87.33596 | 24980 ft | 365 kts | 84° |
| 2026-05-07 22:22 | 40.87819 | -87.30261 | 24980 ft | 365 kts | 84° |
| 2026-05-07 22:22 | 40.88015 | -87.26921 | 24980 ft | 364 kts | 84° |
| 2026-05-07 22:22 | 40.88211 | -87.23582 | 24980 ft | 365 kts | 84° |
| 2026-05-07 22:22 | 40.88408 | -87.20242 | 24980 ft | 365 kts | 84° |
| 2026-05-07 22:23 | 40.88610 | -87.16903 | 24980 ft | 365 kts | 84° |
| 2026-05-07 22:23 | 40.88813 | -87.13561 | 24979 ft | 365 kts | 84° |
| 2026-05-07 22:23 | 40.89017 | -87.10220 | 24980 ft | 365 kts | 84° |
| 2026-05-07 22:23 | 40.89223 | -87.06875 | 24980 ft | 365 kts | 84° |
| 2026-05-07 22:24 | 40.89432 | -87.03535 | 24981 ft | 365 kts | 84° |
| 2026-05-07 22:24 | 40.89643 | -87.00191 | 24982 ft | 365 kts | 84° |
| 2026-05-07 22:24 | 40.89784 | -86.97975 | 24982 ft | 365 kts | 84° |
| 2026-05-07 22:24 | 40.89996 | -86.94630 | 24983 ft | 365 kts | 84° |
| 2026-05-07 22:25 | 40.90212 | -86.91285 | 24985 ft | 366 kts | 84° |
| 2026-05-07 22:25 | 40.90432 | -86.87936 | 24987 ft | 366 kts | 84° |
| 2026-05-07 22:25 | 40.90724 | -86.83500 | 24989 ft | 366 kts | 84° |
| 2026-05-07 22:25 | 40.90944 | -86.80151 | 24989 ft | 366 kts | 84° |
| 2026-05-07 22:26 | 40.91094 | -86.77884 | 24989 ft | 366 kts | 84° |
| 2026-05-07 22:26 | 40.91320 | -86.74533 | 24990 ft | 366 kts | 84° |
| 2026-05-07 22:26 | 40.91548 | -86.71178 | 24992 ft | 367 kts | 84° |
| 2026-05-07 22:26 | 40.91777 | -86.67818 | 24993 ft | 367 kts | 84° |
| 2026-05-07 22:27 | 40.92007 | -86.64467 | 24994 ft | 367 kts | 84° |
| 2026-05-07 22:27 | 40.92237 | -86.61102 | 24994 ft | 367 kts | 84° |
| 2026-05-07 22:27 | 40.92467 | -86.57738 | 24995 ft | 367 kts | 84° |
| 2026-05-07 22:27 | 40.92698 | -86.54422 | 24995 ft | 368 kts | 84° |
| 2026-05-07 22:28 | 40.92936 | -86.51056 | 24995 ft | 368 kts | 84° |
| 2026-05-07 22:28 | 40.93174 | -86.47690 | 24995 ft | 368 kts | 84° |
| 2026-05-07 22:28 | 40.93413 | -86.44319 | 24995 ft | 368 kts | 84° |
| 2026-05-07 22:28 | 40.93653 | -86.40946 | 24994 ft | 368 kts | 84° |
| 2026-05-07 22:29 | 40.93892 | -86.37574 | 24993 ft | 369 kts | 84° |
| 2026-05-07 22:29 | 40.94132 | -86.34197 | 24992 ft | 369 kts | 84° |
| 2026-05-07 22:29 | 40.94372 | -86.30819 | 24990 ft | 369 kts | 84° |
| 2026-05-07 22:29 | 40.94612 | -86.27439 | 24988 ft | 369 kts | 84° |
| 2026-05-07 22:30 | 40.94853 | -86.24055 | 24985 ft | 370 kts | 84° |
| 2026-05-07 22:30 | 40.95097 | -86.20669 | 24984 ft | 370 kts | 84° |
| 2026-05-07 22:30 | 40.95345 | -86.17279 | 24983 ft | 370 kts | 84° |
| 2026-05-07 22:30 | 40.95520 | -86.13882 | 24983 ft | 370 kts | 86° |
| 2026-05-07 22:31 | 40.95660 | -86.10478 | 24984 ft | 370 kts | 86° |
| 2026-05-07 22:31 | 40.95802 | -86.07081 | 24985 ft | 370 kts | 86° |
| 2026-05-07 22:31 | 40.95945 | -86.03673 | 24984 ft | 371 kts | 86° |
| 2026-05-07 22:31 | 40.96088 | -86.00271 | 24984 ft | 371 kts | 86° |
| 2026-05-07 22:32 | 40.96240 | -85.96868 | 24986 ft | 371 kts | 87° |
| 2026-05-07 22:32 | 40.96402 | -85.93465 | 24987 ft | 370 kts | 87° |
| 2026-05-07 22:32 | 40.96568 | -85.90066 | 24988 ft | 370 kts | 86° |
| 2026-05-07 22:32 | 40.96736 | -85.86670 | 24989 ft | 370 kts | 86° |
| 2026-05-07 22:33 | 40.96904 | -85.83277 | 24990 ft | 370 kts | 86° |
| 2026-05-07 22:33 | 40.97074 | -85.79884 | 24992 ft | 369 kts | 86° |
| 2026-05-07 22:33 | 40.97243 | -85.76496 | 24994 ft | 369 kts | 86° |
| 2026-05-07 22:33 | 40.97412 | -85.73111 | 24998 ft | 369 kts | 86° |
| 2026-05-07 22:34 | 40.97581 | -85.69722 | 25000 ft | 369 kts | 86° |
| 2026-05-07 22:34 | 40.97750 | -85.66337 | 25002 ft | 369 kts | 86° |
| 2026-05-07 22:34 | 40.97923 | -85.62957 | 25005 ft | 368 kts | 87° |
| 2026-05-07 22:34 | 40.98099 | -85.59573 | 25006 ft | 368 kts | 86° |
| 2026-05-07 22:35 | 40.98274 | -85.56236 | 25007 ft | 368 kts | 86° |
| 2026-05-07 22:35 | 40.98452 | -85.52855 | 25007 ft | 368 kts | 86° |
| 2026-05-07 22:35 | 40.98630 | -85.49470 | 25007 ft | 368 kts | 86° |
| 2026-05-07 22:35 | 40.98808 | -85.46088 | 25008 ft | 368 kts | 86° |
| 2026-05-07 22:36 | 40.98986 | -85.42707 | 25008 ft | 368 kts | 86° |
| 2026-05-07 22:36 | 40.99164 | -85.39325 | 25008 ft | 369 kts | 86° |
| 2026-05-07 22:36 | 40.99343 | -85.35941 | 25008 ft | 369 kts | 86° |
| 2026-05-07 22:36 | 40.99522 | -85.32558 | 25008 ft | 369 kts | 86° |
| 2026-05-07 22:37 | 40.99701 | -85.29173 | 25008 ft | 369 kts | 86° |
| 2026-05-07 22:37 | 40.99880 | -85.25789 | 25009 ft | 369 kts | 86° |
| 2026-05-07 22:37 | 41.00062 | -85.22404 | 25009 ft | 369 kts | 87° |
| 2026-05-07 22:37 | 41.00248 | -85.19017 | 25009 ft | 369 kts | 86° |
| 2026-05-07 22:38 | 41.00435 | -85.15629 | 25009 ft | 369 kts | 86° |
| 2026-05-07 22:38 | 41.00623 | -85.12239 | 25009 ft | 369 kts | 86° |
| 2026-05-07 22:38 | 41.00824 | -85.08851 | 25007 ft | 369 kts | 86° |
| 2026-05-07 22:38 | 41.01193 | -85.05484 | 25008 ft | 369 kts | 81° |
| 2026-05-07 22:39 | 41.01600 | -85.02127 | 25009 ft | 369 kts | 81° |
| 2026-05-07 22:39 | 41.02004 | -84.98769 | 25008 ft | 370 kts | 81° |
| 2026-05-07 22:39 | 41.02408 | -84.95405 | 25007 ft | 370 kts | 81° |
| 2026-05-07 22:39 | 41.02810 | -84.92044 | 25006 ft | 370 kts | 81° |
| 2026-05-07 22:40 | 41.03213 | -84.88675 | 25005 ft | 370 kts | 81° |
| 2026-05-07 22:40 | 41.03616 | -84.85309 | 25004 ft | 370 kts | 81° |
| 2026-05-07 22:40 | 41.04023 | -84.81942 | 25003 ft | 370 kts | 81° |
| 2026-05-07 22:40 | 41.04434 | -84.78570 | 25002 ft | 371 kts | 81° |
| 2026-05-07 22:41 | 41.04845 | -84.75199 | 24999 ft | 371 kts | 81° |
| 2026-05-07 22:41 | 41.05257 | -84.71822 | 24997 ft | 371 kts | 81° |
| 2026-05-07 22:41 | 41.05670 | -84.68448 | 24996 ft | 371 kts | 81° |
| 2026-05-07 22:41 | 41.06082 | -84.65073 | 24995 ft | 371 kts | 81° |
| 2026-05-07 22:42 | 41.06495 | -84.61692 | 24995 ft | 372 kts | 81° |
| 2026-05-07 22:42 | 41.06909 | -84.58309 | 24994 ft | 372 kts | 81° |
| 2026-05-07 22:42 | 41.07322 | -84.54928 | 24993 ft | 372 kts | 81° |
| 2026-05-07 22:42 | 41.07736 | -84.51544 | 24992 ft | 372 kts | 81° |
| 2026-05-07 22:43 | 41.08150 | -84.48159 | 24992 ft | 372 kts | 81° |
| 2026-05-07 22:43 | 41.08563 | -84.44771 | 24991 ft | 372 kts | 81° |
| 2026-05-07 22:43 | 41.08978 | -84.41381 | 24990 ft | 373 kts | 81° |
| 2026-05-07 22:43 | 41.09392 | -84.37991 | 24989 ft | 373 kts | 81° |
| 2026-05-07 22:44 | 41.09801 | -84.34641 | 24988 ft | 373 kts | 81° |
| 2026-05-07 22:44 | 41.10216 | -84.31244 | 24988 ft | 373 kts | 81° |
| 2026-05-07 22:44 | 41.10630 | -84.27851 | 24989 ft | 373 kts | 81° |
| 2026-05-07 22:44 | 41.11048 | -84.24452 | 24989 ft | 373 kts | 81° |
| 2026-05-07 22:45 | 41.11470 | -84.21058 | 24990 ft | 373 kts | 81° |
| 2026-05-07 22:45 | 41.11893 | -84.17658 | 24991 ft | 374 kts | 81° |
| 2026-05-07 22:45 | 41.12319 | -84.14258 | 24992 ft | 374 kts | 81° |
| 2026-05-07 22:45 | 41.12794 | -84.10873 | 24993 ft | 374 kts | 79° |
| 2026-05-07 22:46 | 41.13247 | -84.07480 | 24994 ft | 374 kts | 80° |
| 2026-05-07 22:46 | 41.13674 | -84.04080 | 24995 ft | 374 kts | 81° |
| 2026-05-07 22:46 | 41.14100 | -84.00682 | 24996 ft | 374 kts | 81° |
| 2026-05-07 22:46 | 41.14530 | -83.97280 | 24995 ft | 374 kts | 81° |
| 2026-05-07 22:47 | 41.14968 | -83.93880 | 24993 ft | 374 kts | 81° |
| 2026-05-07 22:47 | 41.15410 | -83.90476 | 24990 ft | 374 kts | 81° |
| 2026-05-07 22:47 | 41.15853 | -83.87075 | 24988 ft | 374 kts | 81° |
| 2026-05-07 22:47 | 41.16297 | -83.83670 | 24985 ft | 375 kts | 81° |
| 2026-05-07 22:48 | 41.16742 | -83.80262 | 24982 ft | 375 kts | 81° |
| 2026-05-07 22:48 | 41.17186 | -83.76857 | 24980 ft | 375 kts | 81° |
| 2026-05-07 22:48 | 41.17631 | -83.73450 | 24978 ft | 375 kts | 81° |
| 2026-05-07 22:48 | 41.18076 | -83.70042 | 24976 ft | 375 kts | 81° |
| 2026-05-07 22:49 | 41.18521 | -83.66630 | 24975 ft | 375 kts | 81° |
| 2026-05-07 22:49 | 41.18966 | -83.63219 | 24972 ft | 375 kts | 81° |
| 2026-05-07 22:49 | 41.19412 | -83.59810 | 24970 ft | 375 kts | 81° |
| 2026-05-07 22:49 | 41.19864 | -83.56396 | 24969 ft | 375 kts | 81° |
| 2026-05-07 22:50 | 41.20316 | -83.52987 | 24969 ft | 375 kts | 81° |
| 2026-05-07 22:50 | 41.20770 | -83.49575 | 24969 ft | 375 kts | 81° |
| 2026-05-07 22:50 | 41.21225 | -83.46161 | 24969 ft | 375 kts | 81° |
| 2026-05-07 22:50 | 41.21679 | -83.42752 | 24969 ft | 375 kts | 81° |
| 2026-05-07 22:51 | 41.22134 | -83.39339 | 24969 ft | 375 kts | 81° |
| 2026-05-07 22:51 | 41.22588 | -83.35929 | 24969 ft | 375 kts | 81° |
| 2026-05-07 22:51 | 41.23043 | -83.32518 | 24969 ft | 375 kts | 81° |
| 2026-05-07 22:51 | 41.23497 | -83.29109 | 24969 ft | 375 kts | 81° |
| 2026-05-07 22:52 | 41.23947 | -83.25739 | 24969 ft | 375 kts | 81° |
| 2026-05-07 22:52 | 41.24407 | -83.22284 | 24968 ft | 375 kts | 81° |
| 2026-05-07 22:52 | 41.24862 | -83.18870 | 24968 ft | 375 kts | 81° |
| 2026-05-07 22:52 | 41.25318 | -83.15455 | 24968 ft | 375 kts | 81° |
| 2026-05-07 22:53 | 41.25766 | -83.12091 | 24967 ft | 375 kts | 81° |
| 2026-05-07 22:53 | 41.26221 | -83.08676 | 24967 ft | 375 kts | 81° |
| 2026-05-07 22:53 | 41.26676 | -83.05262 | 24966 ft | 375 kts | 81° |
| 2026-05-07 22:53 | 41.27132 | -83.01846 | 24967 ft | 375 kts | 81° |
| 2026-05-07 22:54 | 41.27587 | -82.98432 | 24967 ft | 375 kts | 81° |
| 2026-05-07 22:54 | 41.28042 | -82.95017 | 24967 ft | 375 kts | 81° |
| 2026-05-07 22:54 | 41.28498 | -82.91597 | 24967 ft | 375 kts | 81° |
| 2026-05-07 22:54 | 41.28953 | -82.88185 | 24966 ft | 375 kts | 81° |
| 2026-05-07 22:55 | 41.29409 | -82.84765 | 24966 ft | 376 kts | 81° |
| 2026-05-07 22:55 | 41.29870 | -82.81348 | 24967 ft | 376 kts | 81° |
| 2026-05-07 22:55 | 41.30311 | -82.77923 | 24967 ft | 375 kts | 82° |
| 2026-05-07 22:55 | 41.30685 | -82.74491 | 24968 ft | 375 kts | 83° |
| 2026-05-07 22:56 | 41.31070 | -82.71060 | 24969 ft | 375 kts | 83° |
| 2026-05-07 22:56 | 41.31460 | -82.67627 | 24969 ft | 375 kts | 83° |
| 2026-05-07 22:56 | 41.31852 | -82.64196 | 24970 ft | 375 kts | 83° |
| 2026-05-07 22:56 | 41.32246 | -82.60765 | 24971 ft | 375 kts | 83° |
| 2026-05-07 22:57 | 41.32641 | -82.57328 | 24972 ft | 376 kts | 83° |
| 2026-05-07 22:57 | 41.33036 | -82.53896 | 24973 ft | 376 kts | 83° |
| 2026-05-07 22:57 | 41.33431 | -82.50457 | 24974 ft | 376 kts | 83° |
| 2026-05-07 22:57 | 41.33827 | -82.47022 | 24970 ft | 376 kts | 82° |
| 2026-05-07 22:58 | 41.34228 | -82.43590 | 24969 ft | 376 kts | 83° |
| 2026-05-07 22:58 | 41.34632 | -82.40153 | 24973 ft | 376 kts | 83° |
| 2026-05-07 22:58 | 41.35037 | -82.36716 | 24976 ft | 376 kts | 83° |
| 2026-05-07 22:58 | 41.35441 | -82.33284 | 24977 ft | 376 kts | 83° |
| 2026-05-07 22:59 | 41.35847 | -82.29837 | 24977 ft | 376 kts | 83° |
| 2026-05-07 22:59 | 41.36253 | -82.26400 | 24977 ft | 376 kts | 83° |
| 2026-05-07 22:59 | 41.36658 | -82.22973 | 24978 ft | 375 kts | 83° |
| 2026-05-07 22:59 | 41.37063 | -82.19546 | 24978 ft | 374 kts | 83° |
| 2026-05-07 23:00 | 41.37468 | -82.16128 | 24979 ft | 374 kts | 83° |
| 2026-05-07 23:00 | 41.37873 | -82.12714 | 24978 ft | 373 kts | 83° |
| 2026-05-07 23:00 | 41.38278 | -82.09298 | 24978 ft | 373 kts | 83° |
| 2026-05-07 23:00 | 41.38714 | -82.05907 | 24975 ft | 372 kts | 80° |
| 2026-05-07 23:01 | 41.39390 | -82.02626 | 24974 ft | 371 kts | 72° |
| 2026-05-07 23:01 | 41.40309 | -81.99374 | 24976 ft | 370 kts | 67° |
| 2026-05-07 23:01 | 41.41219 | -81.96212 | 24973 ft | 370 kts | 68° |
| 2026-05-07 23:01 | 41.42151 | -81.92967 | 24971 ft | 370 kts | 68° |
| 2026-05-07 23:02 | 41.43071 | -81.89762 | 24970 ft | 370 kts | 68° |
| 2026-05-07 23:02 | 41.43977 | -81.86602 | 24969 ft | 370 kts | 68° |
| 2026-05-07 23:02 | 41.44894 | -81.83400 | 24969 ft | 370 kts | 68° |
| 2026-05-07 23:02 | 41.45809 | -81.80203 | 24969 ft | 369 kts | 68° |
| 2026-05-07 23:03 | 41.46724 | -81.77005 | 24969 ft | 369 kts | 68° |
| 2026-05-07 23:03 | 41.47639 | -81.73807 | 24969 ft | 369 kts | 68° |
| 2026-05-07 23:03 | 41.48554 | -81.70608 | 24969 ft | 369 kts | 68° |
| 2026-05-07 23:03 | 41.49468 | -81.67411 | 24969 ft | 369 kts | 68° |
| 2026-05-07 23:04 | 41.50382 | -81.64215 | 24969 ft | 369 kts | 68° |
| 2026-05-07 23:04 | 41.51294 | -81.61023 | 24969 ft | 369 kts | 68° |
| 2026-05-07 23:04 | 41.52208 | -81.57825 | 24969 ft | 368 kts | 68° |
| 2026-05-07 23:04 | 41.53122 | -81.54628 | 24969 ft | 368 kts | 68° |
| 2026-05-07 23:05 | 41.54034 | -81.51437 | 24969 ft | 368 kts | 68° |
| 2026-05-07 23:05 | 41.54947 | -81.48240 | 24969 ft | 368 kts | 68° |
| 2026-05-07 23:05 | 41.55859 | -81.45048 | 24969 ft | 368 kts | 68° |
| 2026-05-07 23:05 | 41.56771 | -81.41855 | 24971 ft | 368 kts | 68° |
| 2026-05-07 23:06 | 41.57681 | -81.38660 | 24972 ft | 368 kts | 68° |
| 2026-05-07 23:06 | 41.58591 | -81.35469 | 24976 ft | 368 kts | 68° |
| 2026-05-07 23:06 | 41.59500 | -81.32280 | 24972 ft | 368 kts | 68° |
| 2026-05-07 23:06 | 41.60412 | -81.29083 | 24970 ft | 368 kts | 68° |
| 2026-05-07 23:07 | 41.61323 | -81.25889 | 24965 ft | 368 kts | 68° |
| 2026-05-07 23:07 | 41.62235 | -81.22688 | 24964 ft | 368 kts | 68° |
| 2026-05-07 23:07 | 41.63146 | -81.19494 | 24966 ft | 368 kts | 68° |
| 2026-05-07 23:07 | 41.64057 | -81.16299 | 24967 ft | 368 kts | 68° |
| 2026-05-07 23:08 | 41.64968 | -81.13105 | 24966 ft | 368 kts | 68° |
| 2026-05-07 23:08 | 41.65878 | -81.09912 | 24965 ft | 368 kts | 68° |
| 2026-05-07 23:08 | 41.66789 | -81.06716 | 24964 ft | 368 kts | 68° |
| 2026-05-07 23:08 | 41.67699 | -81.03522 | 24962 ft | 368 kts | 68° |
| 2026-05-07 23:09 | 41.68610 | -81.00327 | 24960 ft | 368 kts | 68° |
| 2026-05-07 23:09 | 41.69521 | -80.97126 | 24958 ft | 368 kts | 68° |
| 2026-05-07 23:09 | 41.70430 | -80.93932 | 24956 ft | 368 kts | 68° |
| 2026-05-07 23:09 | 41.71341 | -80.90729 | 24954 ft | 368 kts | 68° |
| 2026-05-07 23:10 | 41.72252 | -80.87527 | 24953 ft | 368 kts | 68° |
| 2026-05-07 23:10 | 41.73162 | -80.84330 | 24952 ft | 368 kts | 68° |
| 2026-05-07 23:10 | 41.74073 | -80.81126 | 24951 ft | 368 kts | 68° |
| 2026-05-07 23:10 | 41.74984 | -80.77922 | 24950 ft | 368 kts | 68° |
| 2026-05-07 23:11 | 41.75895 | -80.74716 | 24950 ft | 368 kts | 68° |
| 2026-05-07 23:11 | 41.76806 | -80.71511 | 24949 ft | 368 kts | 68° |
| 2026-05-07 23:11 | 41.77718 | -80.68306 | 24949 ft | 368 kts | 68° |
| 2026-05-07 23:11 | 41.78628 | -80.65102 | 24949 ft | 368 kts | 68° |
| 2026-05-07 23:12 | 41.79231 | -80.62979 | 24949 ft | 368 kts | 68° |
| 2026-05-07 23:12 | 41.80450 | -80.58689 | 24948 ft | 368 kts | 68° |
| 2026-05-07 23:12 | 41.81054 | -80.56562 | 24948 ft | 368 kts | 68° |
| 2026-05-07 23:12 | 41.81965 | -80.53357 | 24947 ft | 368 kts | 68° |
| 2026-05-07 23:13 | 41.82877 | -80.50147 | 24946 ft | 368 kts | 68° |
| 2026-05-07 23:13 | 41.83788 | -80.46937 | 24946 ft | 368 kts | 68° |
| 2026-05-07 23:13 | 41.84700 | -80.43728 | 24945 ft | 368 kts | 68° |
| 2026-05-07 23:13 | 41.85612 | -80.40518 | 24944 ft | 368 kts | 68° |
| 2026-05-07 23:14 | 41.86526 | -80.37298 | 24943 ft | 368 kts | 68° |
| 2026-05-07 23:14 | 41.87441 | -80.34080 | 24942 ft | 368 kts | 68° |
| 2026-05-07 23:14 | 41.88354 | -80.30865 | 24942 ft | 368 kts | 68° |
| 2026-05-07 23:14 | 41.89255 | -80.27691 | 24941 ft | 368 kts | 68° |
| 2026-05-07 23:15 | 41.90166 | -80.24481 | 24941 ft | 368 kts | 68° |
| 2026-05-07 23:15 | 41.91079 | -80.21267 | 24940 ft | 368 kts | 68° |
| 2026-05-07 23:15 | 41.91994 | -80.18047 | 24939 ft | 368 kts | 68° |
| 2026-05-07 23:15 | 41.92906 | -80.14838 | 24939 ft | 368 kts | 68° |
| 2026-05-07 23:16 | 41.93817 | -80.11631 | 24938 ft | 368 kts | 68° |
| 2026-05-07 23:16 | 41.94730 | -80.08417 | 24938 ft | 368 kts | 68° |
| 2026-05-07 23:16 | 41.95641 | -80.05209 | 24938 ft | 368 kts | 68° |
| 2026-05-07 23:16 | 41.96552 | -80.01999 | 24938 ft | 368 kts | 68° |
| 2026-05-07 23:17 | 41.97462 | -79.98793 | 24938 ft | 367 kts | 68° |
| 2026-05-07 23:17 | 41.98373 | -79.95585 | 24937 ft | 367 kts | 68° |
| 2026-05-07 23:17 | 41.99284 | -79.92374 | 24937 ft | 367 kts | 68° |
| 2026-05-07 23:17 | 42.00183 | -79.89201 | 24937 ft | 367 kts | 68° |
| 2026-05-07 23:18 | 42.01084 | -79.86004 | 24938 ft | 367 kts | 68° |
| 2026-05-07 23:18 | 42.01990 | -79.82788 | 24935 ft | 366 kts | 68° |
| 2026-05-07 23:18 | 42.02892 | -79.79579 | 24932 ft | 365 kts | 68° |
| 2026-05-07 23:18 | 42.03776 | -79.76375 | 24930 ft | 365 kts | 69° |
| 2026-05-07 23:19 | 42.04588 | -79.73131 | 24929 ft | 365 kts | 70° |
| 2026-05-07 23:19 | 42.05405 | -79.69901 | 24928 ft | 364 kts | 70° |
| 2026-05-07 23:19 | 42.06231 | -79.66684 | 24926 ft | 364 kts | 70° |
| 2026-05-07 23:19 | 42.07059 | -79.63474 | 24925 ft | 363 kts | 70° |
| 2026-05-07 23:20 | 42.07890 | -79.60265 | 24924 ft | 363 kts | 70° |
| 2026-05-07 23:20 | 42.08719 | -79.57063 | 24922 ft | 362 kts | 70° |
| 2026-05-07 23:20 | 42.09549 | -79.53859 | 24920 ft | 362 kts | 70° |
| 2026-05-07 23:20 | 42.10379 | -79.50660 | 24920 ft | 362 kts | 70° |
| 2026-05-07 23:21 | 42.11206 | -79.47465 | 24919 ft | 362 kts | 70° |
| 2026-05-07 23:21 | 42.12023 | -79.44313 | 24919 ft | 361 kts | 70° |
| 2026-05-07 23:21 | 42.12851 | -79.41117 | 24919 ft | 361 kts | 70° |
| 2026-05-07 23:21 | 42.13688 | -79.37882 | 24919 ft | 361 kts | 70° |
| 2026-05-07 23:22 | 42.14502 | -79.34737 | 24919 ft | 361 kts | 70° |
| 2026-05-07 23:22 | 42.15328 | -79.31544 | 24919 ft | 361 kts | 70° |
| 2026-05-07 23:22 | 42.16154 | -79.28352 | 24919 ft | 360 kts | 70° |
| 2026-05-07 23:22 | 42.16977 | -79.25166 | 24919 ft | 360 kts | 70° |
| 2026-05-07 23:23 | 42.17800 | -79.21981 | 24919 ft | 360 kts | 70° |
| 2026-05-07 23:23 | 42.18625 | -79.18787 | 24919 ft | 360 kts | 70° |
| 2026-05-07 23:23 | 42.19448 | -79.15601 | 24919 ft | 360 kts | 70° |
| 2026-05-07 23:23 | 42.20262 | -79.12404 | 24917 ft | 360 kts | 71° |
| 2026-05-07 23:24 | 42.20740 | -79.09100 | 24917 ft | 359 kts | 88° |
| 2026-05-07 23:24 | 42.20632 | -79.05779 | 24917 ft | 351 kts | 105° |
| 2026-05-07 23:24 | 42.20012 | -79.02636 | 24918 ft | 344 kts | 116° |
| 2026-05-07 23:24 | 42.19230 | -78.99593 | 24918 ft | 343 kts | 118° |
| 2026-05-07 23:25 | 42.18404 | -78.96578 | 24915 ft | 343 kts | 119° |
| 2026-05-07 23:25 | 42.17585 | -78.93559 | 24912 ft | 343 kts | 119° |
| 2026-05-07 23:25 | 42.16758 | -78.90544 | 24909 ft | 342 kts | 120° |
| 2026-05-07 23:25 | 42.15864 | -78.87581 | 24907 ft | 341 kts | 122° |
| 2026-05-07 23:26 | 42.14968 | -78.84605 | 24905 ft | 342 kts | 122° |
| 2026-05-07 23:26 | 42.14078 | -78.81638 | 24902 ft | 342 kts | 122° |
| 2026-05-07 23:26 | 42.13186 | -78.78660 | 24900 ft | 342 kts | 122° |
| 2026-05-07 23:26 | 42.12308 | -78.75719 | 24894 ft | 343 kts | 122° |
| 2026-05-07 23:27 | 42.10533 | -78.69757 | 24888 ft | 343 kts | 122° |
| 2026-05-07 23:27 | 42.09647 | -78.66773 | 24886 ft | 343 kts | 122° |
| 2026-05-07 23:27 | 42.08761 | -78.63785 | 24885 ft | 344 kts | 122° |
| 2026-05-07 23:28 | 42.07878 | -78.60794 | 24884 ft | 344 kts | 122° |
| 2026-05-07 23:28 | 42.06994 | -78.57801 | 24884 ft | 344 kts | 122° |
| 2026-05-07 23:28 | 42.06112 | -78.54808 | 24883 ft | 344 kts | 122° |
| 2026-05-07 23:28 | 42.05234 | -78.51808 | 24883 ft | 345 kts | 122° |
| 2026-05-07 23:29 | 42.04358 | -78.48805 | 24882 ft | 345 kts | 122° |
| 2026-05-07 23:29 | 42.03482 | -78.45800 | 24882 ft | 345 kts | 122° |
| 2026-05-07 23:29 | 42.02608 | -78.42791 | 24882 ft | 345 kts | 122° |
| 2026-05-07 23:29 | 42.01735 | -78.39780 | 24881 ft | 346 kts | 122° |
| 2026-05-07 23:30 | 42.00862 | -78.36771 | 24881 ft | 346 kts | 122° |
| 2026-05-07 23:30 | 41.99988 | -78.33758 | 24882 ft | 346 kts | 122° |
| 2026-05-07 23:30 | 41.99149 | -78.30717 | 24881 ft | 348 kts | 120° |
| 2026-05-07 23:30 | 41.98347 | -78.27646 | 24883 ft | 348 kts | 120° |
| 2026-05-07 23:31 | 41.97541 | -78.24574 | 24883 ft | 348 kts | 120° |
| 2026-05-07 23:31 | 41.96733 | -78.21508 | 24884 ft | 348 kts | 120° |
| 2026-05-07 23:31 | 41.95922 | -78.18439 | 24884 ft | 348 kts | 120° |
| 2026-05-07 23:31 | 41.95111 | -78.15374 | 24884 ft | 349 kts | 120° |
| 2026-05-07 23:32 | 41.94299 | -78.12309 | 24885 ft | 349 kts | 120° |
| 2026-05-07 23:32 | 41.93484 | -78.09237 | 24885 ft | 349 kts | 120° |
| 2026-05-07 23:32 | 41.92671 | -78.06170 | 24886 ft | 349 kts | 120° |
| 2026-05-07 23:32 | 41.91857 | -78.03102 | 24886 ft | 349 kts | 120° |
| 2026-05-07 23:33 | 41.91043 | -78.00033 | 24886 ft | 349 kts | 120° |
| 2026-05-07 23:33 | 41.90229 | -77.96967 | 24886 ft | 349 kts | 120° |
| 2026-05-07 23:33 | 41.89414 | -77.93898 | 24887 ft | 349 kts | 120° |
| 2026-05-07 23:33 | 41.88599 | -77.90827 | 24888 ft | 349 kts | 120° |
| 2026-05-07 23:34 | 41.87784 | -77.87760 | 24888 ft | 349 kts | 120° |
| 2026-05-07 23:34 | 41.86968 | -77.84690 | 24888 ft | 349 kts | 120° |
| 2026-05-07 23:34 | 41.86152 | -77.81620 | 24887 ft | 349 kts | 120° |
| 2026-05-07 23:34 | 41.85337 | -77.78549 | 24886 ft | 350 kts | 120° |
| 2026-05-07 23:35 | 41.84524 | -77.75476 | 24884 ft | 350 kts | 120° |
| 2026-05-07 23:35 | 41.83710 | -77.72401 | 24884 ft | 350 kts | 120° |
| 2026-05-07 23:35 | 41.82896 | -77.69323 | 24882 ft | 350 kts | 120° |
| 2026-05-07 23:35 | 41.82084 | -77.66252 | 24879 ft | 350 kts | 120° |
| 2026-05-07 23:36 | 41.81270 | -77.63172 | 24877 ft | 350 kts | 120° |
| 2026-05-07 23:36 | 41.80458 | -77.60089 | 24875 ft | 351 kts | 120° |
| 2026-05-07 23:36 | 41.79650 | -77.57002 | 24874 ft | 351 kts | 120° |
| 2026-05-07 23:36 | 41.78856 | -77.53961 | 24872 ft | 351 kts | 120° |
| 2026-05-07 23:37 | 41.78052 | -77.50870 | 24871 ft | 351 kts | 120° |
| 2026-05-07 23:37 | 41.77239 | -77.47738 | 24869 ft | 351 kts | 120° |
| 2026-05-07 23:37 | 41.76451 | -77.44686 | 24868 ft | 352 kts | 120° |
| 2026-05-07 23:37 | 41.75656 | -77.41587 | 24867 ft | 352 kts | 120° |
| 2026-05-07 23:38 | 41.74865 | -77.38491 | 24866 ft | 352 kts | 120° |
| 2026-05-07 23:38 | 41.74076 | -77.35388 | 24864 ft | 352 kts | 120° |
| 2026-05-07 23:38 | 41.73288 | -77.32284 | 24863 ft | 352 kts | 120° |
| 2026-05-07 23:38 | 41.72503 | -77.29176 | 24862 ft | 352 kts | 120° |
| 2026-05-07 23:39 | 41.71723 | -77.26067 | 24861 ft | 353 kts | 120° |
| 2026-05-07 23:39 | 41.70949 | -77.22958 | 24860 ft | 353 kts | 120° |
| 2026-05-07 23:39 | 41.70175 | -77.19838 | 24859 ft | 353 kts | 120° |
| 2026-05-07 23:39 | 41.69406 | -77.16725 | 24858 ft | 353 kts | 120° |
| 2026-05-07 23:40 | 41.68637 | -77.13600 | 24857 ft | 353 kts | 120° |
| 2026-05-07 23:40 | 41.67872 | -77.10481 | 24856 ft | 353 kts | 120° |
| 2026-05-07 23:40 | 41.67106 | -77.07354 | 24855 ft | 353 kts | 120° |
| 2026-05-07 23:40 | 41.66342 | -77.04234 | 24854 ft | 353 kts | 120° |
| 2026-05-07 23:41 | 41.65579 | -77.01109 | 24853 ft | 354 kts | 120° |
| 2026-05-07 23:41 | 41.64817 | -76.97982 | 24852 ft | 354 kts | 120° |
| 2026-05-07 23:41 | 41.64061 | -76.94848 | 24850 ft | 354 kts | 120° |
| 2026-05-07 23:41 | 41.63308 | -76.91714 | 24849 ft | 354 kts | 120° |
| 2026-05-07 23:42 | 41.62558 | -76.88580 | 24848 ft | 354 kts | 120° |
| 2026-05-07 23:42 | 41.61809 | -76.85441 | 24848 ft | 354 kts | 120° |
| 2026-05-07 23:42 | 41.61063 | -76.82301 | 24848 ft | 355 kts | 120° |
| 2026-05-07 23:42 | 41.60318 | -76.79163 | 24847 ft | 355 kts | 120° |
| 2026-05-07 23:43 | 41.59574 | -76.76018 | 24847 ft | 355 kts | 120° |
| 2026-05-07 23:43 | 41.58832 | -76.72876 | 24847 ft | 355 kts | 120° |
| 2026-05-07 23:43 | 41.58089 | -76.69734 | 24848 ft | 354 kts | 120° |
| 2026-05-07 23:43 | 41.57219 | -76.66702 | 24851 ft | 347 kts | 126° |
| 2026-05-07 23:44 | 41.56295 | -76.63721 | 24850 ft | 348 kts | 126° |
| 2026-05-07 23:44 | 41.55380 | -76.60733 | 24849 ft | 348 kts | 126° |
| 2026-05-07 23:44 | 41.54467 | -76.57736 | 24848 ft | 348 kts | 126° |
| 2026-05-07 23:44 | 41.53557 | -76.54742 | 24848 ft | 348 kts | 126° |
| 2026-05-07 23:45 | 41.52650 | -76.51745 | 24849 ft | 349 kts | 126° |
| 2026-05-07 23:45 | 41.51743 | -76.48740 | 24850 ft | 349 kts | 126° |
| 2026-05-07 23:45 | 41.50837 | -76.45741 | 24850 ft | 349 kts | 126° |
| 2026-05-07 23:45 | 41.49927 | -76.42740 | 24851 ft | 349 kts | 126° |
| 2026-05-07 23:46 | 41.49016 | -76.39743 | 24852 ft | 349 kts | 126° |
| 2026-05-07 23:46 | 41.48107 | -76.36749 | 24853 ft | 349 kts | 126° |
| 2026-05-07 23:46 | 41.47207 | -76.33787 | 24854 ft | 349 kts | 126° |
| 2026-05-07 23:46 | 41.46298 | -76.30794 | 24855 ft | 349 kts | 126° |
| 2026-05-07 23:47 | 41.45390 | -76.27795 | 24856 ft | 349 kts | 126° |
| 2026-05-07 23:47 | 41.44481 | -76.24791 | 24857 ft | 349 kts | 126° |
| 2026-05-07 23:47 | 41.43574 | -76.21793 | 24858 ft | 349 kts | 126° |
| 2026-05-07 23:47 | 41.42666 | -76.18789 | 24859 ft | 349 kts | 126° |
| 2026-05-07 23:48 | 41.41759 | -76.15789 | 24864 ft | 349 kts | 126° |
| 2026-05-07 23:48 | 41.40852 | -76.12791 | 24866 ft | 349 kts | 126° |
| 2026-05-07 23:48 | 41.39945 | -76.09793 | 24867 ft | 349 kts | 126° |
| 2026-05-07 23:48 | 41.39038 | -76.06790 | 24867 ft | 349 kts | 126° |
| 2026-05-07 23:49 | 41.38135 | -76.03793 | 24867 ft | 349 kts | 126° |
| 2026-05-07 23:49 | 41.37231 | -76.00786 | 24868 ft | 349 kts | 126° |
| 2026-05-07 23:49 | 41.36329 | -75.97782 | 24869 ft | 349 kts | 126° |
| 2026-05-07 23:49 | 41.35428 | -75.94783 | 24870 ft | 348 kts | 126° |
| 2026-05-07 23:50 | 41.34534 | -75.91794 | 24871 ft | 347 kts | 126° |
| 2026-05-07 23:50 | 41.33643 | -75.88810 | 24871 ft | 346 kts | 126° |
| 2026-05-07 23:50 | 41.32758 | -75.85840 | 24870 ft | 345 kts | 126° |
| 2026-05-07 23:50 | 41.31880 | -75.82872 | 24869 ft | 344 kts | 126° |
| 2026-05-07 23:51 | 41.31008 | -75.79911 | 24869 ft | 343 kts | 126° |
| 2026-05-07 23:51 | 41.30140 | -75.76958 | 24868 ft | 342 kts | 126° |
| 2026-05-07 23:51 | 41.29277 | -75.74016 | 24868 ft | 341 kts | 126° |
| 2026-05-07 23:51 | 41.28421 | -75.71080 | 24868 ft | 340 kts | 126° |
| 2026-05-07 23:52 | 41.27572 | -75.68151 | 24764 ft | 340 kts | 126° |
| 2026-05-07 23:52 | 41.26710 | -75.65206 | 24537 ft | 344 kts | 126° |
| 2026-05-07 23:52 | 41.25827 | -75.62224 | 24288 ft | 349 kts | 126° |
| 2026-05-07 23:52 | 41.24932 | -75.59215 | 24074 ft | 352 kts | 126° |
| 2026-05-07 23:53 | 41.24028 | -75.56183 | 23843 ft | 354 kts | 126° |
| 2026-05-07 23:53 | 41.23095 | -75.53156 | 23617 ft | 353 kts | 127° |
| 2026-05-07 23:53 | 41.22097 | -75.50166 | 23400 ft | 354 kts | 128° |
| 2026-05-07 23:53 | 41.21098 | -75.47176 | 23190 ft | 355 kts | 128° |
| 2026-05-07 23:54 | 41.20094 | -75.44186 | 22983 ft | 354 kts | 128° |
| 2026-05-07 23:54 | 41.19089 | -75.41206 | 22779 ft | 353 kts | 127° |
| 2026-05-07 23:54 | 41.18082 | -75.38235 | 22578 ft | 353 kts | 127° |
| 2026-05-07 23:54 | 41.17073 | -75.35275 | 22379 ft | 352 kts | 128° |
| 2026-05-07 23:55 | 41.16064 | -75.32319 | 22182 ft | 351 kts | 128° |
| 2026-05-07 23:55 | 41.15066 | -75.29412 | 21990 ft | 350 kts | 128° |
| 2026-05-07 23:55 | 41.14055 | -75.26477 | 21799 ft | 349 kts | 127° |
| 2026-05-07 23:55 | 41.13042 | -75.23552 | 21609 ft | 349 kts | 127° |
| 2026-05-07 23:56 | 41.12027 | -75.20635 | 21422 ft | 349 kts | 128° |
| 2026-05-07 23:56 | 41.11005 | -75.17718 | 21239 ft | 349 kts | 128° |
| 2026-05-07 23:56 | 41.09980 | -75.14806 | 21059 ft | 348 kts | 128° |
| 2026-05-07 23:56 | 41.08953 | -75.11897 | 20881 ft | 348 kts | 128° |
| 2026-05-07 23:57 | 41.07928 | -75.09004 | 20702 ft | 346 kts | 127° |
| 2026-05-07 23:57 | 41.06905 | -75.06126 | 20465 ft | 345 kts | 127° |
| 2026-05-07 23:57 | 41.05878 | -75.03247 | 20214 ft | 345 kts | 127° |
| 2026-05-07 23:57 | 41.04849 | -75.00378 | 19968 ft | 345 kts | 127° |
| 2026-05-07 23:58 | 41.03813 | -74.97515 | 19723 ft | 344 kts | 127° |
| 2026-05-07 23:58 | 41.02770 | -74.94663 | 19478 ft | 344 kts | 127° |
| 2026-05-07 23:58 | 41.01720 | -74.91814 | 19236 ft | 343 kts | 127° |
| 2026-05-07 23:58 | 41.00669 | -74.88982 | 18997 ft | 342 kts | 127° |
| 2026-05-07 23:59 | 40.99618 | -74.86167 | 18757 ft | 341 kts | 127° |
| 2026-05-07 23:59 | 40.98594 | -74.83335 | 18501 ft | 344 kts | 126° |
| 2026-05-07 23:59 | 40.97858 | -74.80275 | 18162 ft | 355 kts | 112° |
| 2026-05-07 23:59 | 40.97428 | -74.77043 | 17895 ft | 356 kts | 107° |
| 2026-05-08 00:00 | 40.97007 | -74.73819 | 17664 ft | 354 kts | 107° |
| 2026-05-08 00:00 | 40.96728 | -74.71703 | 17512 ft | 353 kts | 107° |
| 2026-05-08 00:00 | 40.96308 | -74.68517 | 17281 ft | 351 kts | 107° |
| 2026-05-08 00:00 | 40.95888 | -74.65346 | 17049 ft | 349 kts | 107° |
| 2026-05-08 00:01 | 40.95506 | -74.62180 | 16811 ft | 348 kts | 104° |
| 2026-05-08 00:01 | 40.95150 | -74.59015 | 16578 ft | 346 kts | 104° |
| 2026-05-08 00:01 | 40.94792 | -74.55872 | 16345 ft | 345 kts | 104° |
| 2026-05-08 00:01 | 40.94433 | -74.52746 | 16113 ft | 343 kts | 104° |
| 2026-05-08 00:02 | 40.94072 | -74.49639 | 15882 ft | 341 kts | 104° |
| 2026-05-08 00:02 | 40.93709 | -74.46542 | 15650 ft | 339 kts | 104° |
| 2026-05-08 00:02 | 40.93347 | -74.43468 | 15419 ft | 338 kts | 104° |
| 2026-05-08 00:02 | 40.92985 | -74.40408 | 15202 ft | 336 kts | 104° |
| 2026-05-08 00:03 | 40.92627 | -74.37389 | 15101 ft | 330 kts | 104° |
| 2026-05-08 00:03 | 40.92273 | -74.34404 | 15002 ft | 327 kts | 105° |
| 2026-05-08 00:03 | 40.91924 | -74.31457 | 14956 ft | 322 kts | 105° |
| 2026-05-08 00:03 | 40.91583 | -74.28552 | 14963 ft | 317 kts | 105° |
| 2026-05-08 00:04 | 40.91254 | -74.25692 | 14977 ft | 312 kts | 105° |
| 2026-05-08 00:04 | 40.90931 | -74.22865 | 14970 ft | 309 kts | 105° |
| 2026-05-08 00:04 | 40.90625 | -74.20153 | 14963 ft | 306 kts | 104° |
| 2026-05-08 00:04 | 40.90305 | -74.17309 | 14962 ft | 302 kts | 105° |
| 2026-05-08 00:05 | 40.89900 | -74.14619 | 14953 ft | 294 kts | 112° |
| 2026-05-08 00:05 | 40.89155 | -74.12176 | 14962 ft | 280 kts | 127° |
| 2026-05-08 00:05 | 40.88089 | -74.10121 | 14969 ft | 263 kts | 143° |
| 2026-05-08 00:05 | 40.86794 | -74.08545 | 14970 ft | 245 kts | 158° |
| 2026-05-08 00:06 | 40.85378 | -74.07444 | 15068 ft | 229 kts | 168° |
| 2026-05-08 00:06 | 40.83971 | -74.06420 | 14849 ft | 239 kts | 168° |
| 2026-05-08 00:06 | 40.82498 | -74.05383 | 14806 ft | 238 kts | 168° |
| 2026-05-08 00:06 | 40.81037 | -74.04362 | 14744 ft | 239 kts | 168° |
| 2026-05-08 00:07 | 40.79534 | -74.03324 | 14485 ft | 248 kts | 168° |
| 2026-05-08 00:07 | 40.77972 | -74.02275 | 14253 ft | 255 kts | 168° |
| 2026-05-08 00:07 | 40.76366 | -74.01220 | 14044 ft | 260 kts | 167° |
| 2026-05-08 00:07 | 40.74728 | -74.00163 | 13838 ft | 264 kts | 167° |
| 2026-05-08 00:08 | 40.73049 | -73.99114 | 13584 ft | 270 kts | 167° |
| 2026-05-08 00:08 | 40.71328 | -73.98075 | 13351 ft | 274 kts | 167° |
| 2026-05-08 00:08 | 40.69579 | -73.97038 | 13090 ft | 278 kts | 167° |
| 2026-05-08 00:08 | 40.67793 | -73.96003 | 12796 ft | 283 kts | 167° |
| 2026-05-08 00:09 | 40.66002 | -73.94984 | 12497 ft | 285 kts | 167° |
| 2026-05-08 00:09 | 40.64167 | -73.93958 | 12214 ft | 288 kts | 167° |
| 2026-05-08 00:09 | 40.62315 | -73.92935 | 11936 ft | 290 kts | 167° |
| 2026-05-08 00:09 | 40.61055 | -73.92249 | 11751 ft | 290 kts | 167° |